Wetterdaten: Dienstag, 20.05.2014
Datum Zeit Temp. Aussen +5cm Feuchte Auss Luftdruck Regen Sonnenschein Regendauer UV Solar Windben
20.05.2014 00:00 17,1 C 13,9 C 76 % 1007,2 hPa 0,0 l/m 0 min 0 min 0,0 UV-I 0 W/m 0,0 km/h (0 Bft)
20.05.2014 00:02 17,1 C 13,9 C 76 % 1007,3 hPa 0,0 l/m 0 min 0 min 0,0 UV-I 0 W/m 0,0 km/h (0 Bft)
20.05.2014 00:06 17,0 C 13,9 C 76 % 1007,3 hPa 0,0 l/m 0 min 0 min 0,0 UV-I 0 W/m 0,0 km/h (0 Bft)
20.05.2014 00:08 16,9 C 13,9 C 76 % 1007,3 hPa 0,0 l/m 0 min 0 min 0,0 UV-I 0 W/m 0,0 km/h (0 Bft)
20.05.2014 00:10 16,9 C 13,9 C 76 % 1007,3 hPa 0,0 l/m 0 min 0 min 0,0 UV-I 0 W/m 0,0 km/h (0 Bft)
20.05.2014 00:12 16,9 C 13,9 C 76 % 1007,3 hPa 0,0 l/m 0 min 0 min 0,0 UV-I 0 W/m 0,0 km/h (0 Bft)
20.05.2014 00:14 16,9 C 13,9 C 76 % 1007,3 hPa 0,0 l/m 0 min 0 min 0,0 UV-I 0 W/m 0,0 km/h (0 Bft)
20.05.2014 00:16 16,9 C 13,3 C 76 % 1007,3 hPa 0,0 l/m 0 min 0 min 0,0 UV-I 0 W/m 0,0 km/h (0 Bft)
20.05.2014 00:18 16,9 C 13,3 C 76 % 1007,3 hPa 0,0 l/m 0 min 0 min 0,0 UV-I 0 W/m 0,0 km/h (0 Bft)
20.05.2014 00:20 16,9 C 13,3 C 76 % 1007,3 hPa 0,0 l/m 0 min 0 min 0,0 UV-I 0 W/m 0,0 km/h (0 Bft)
20.05.2014 00:22 16,9 C 13,3 C 76 % 1007,4 hPa 0,0 l/m 0 min 0 min 0,0 UV-I 0 W/m 0,0 km/h (0 Bft)
20.05.2014 00:24 16,9 C 13,3 C 76 % 1007,4 hPa 0,0 l/m 0 min 0 min 0,0 UV-I 0 W/m 0,0 km/h (0 Bft)
20.05.2014 00:26 16,9 C 13,3 C 76 % 1007,4 hPa 0,0 l/m 0 min 0 min 0,0 UV-I 0 W/m 0,0 km/h (0 Bft)
20.05.2014 00:28 16,9 C 13,3 C 75 % 1007,5 hPa 0,0 l/m 0 min 0 min 0,0 UV-I 0 W/m 0,0 km/h (0 Bft)
20.05.2014 00:30 16,8 C 13,3 C 75 % 1007,5 hPa 0,0 l/m 0 min 0 min 0,0 UV-I 0 W/m 0,0 km/h (0 Bft)
20.05.2014 00:32 16,8 C 13,3 C 76 % 1007,5 hPa 0,0 l/m 0 min 0 min 0,0 UV-I 0 W/m 0,0 km/h (0 Bft)
20.05.2014 00:34 16,8 C 13,3 C 76 % 1007,5 hPa 0,0 l/m 0 min 0 min 0,0 UV-I 0 W/m 0,0 km/h (0 Bft)
20.05.2014 00:36 16,8 C 13,3 C 75 % 1007,5 hPa 0,0 l/m 0 min 0 min 0,0 UV-I 0 W/m 0,0 km/h (0 Bft)
20.05.2014 00:38 16,8 C 13,3 C 75 % 1007,5 hPa 0,0 l/m 0 min 0 min 0,0 UV-I 0 W/m 0,0 km/h (0 Bft)
20.05.2014 00:40 16,8 C 13,3 C 75 % 1007,5 hPa 0,0 l/m 0 min 0 min 0,0 UV-I 0 W/m 0,0 km/h (0 Bft)
20.05.2014 00:42 16,8 C 13,3 C 75 % 1007,5 hPa 0,0 l/m 0 min 0 min 0,0 UV-I 0 W/m 0,0 km/h (0 Bft)
20.05.2014 00:44 16,8 C 13,3 C 75 % 1007,5 hPa 0,0 l/m 0 min 0 min 0,0 UV-I 0 W/m 0,0 km/h (0 Bft)
20.05.2014 00:46 16,8 C 13,3 C 75 % 1007,5 hPa 0,0 l/m 0 min 0 min 0,0 UV-I 0 W/m 0,0 km/h (0 Bft)
20.05.2014 00:48 16,8 C 13,3 C 74 % 1007,5 hPa 0,0 l/m 0 min 0 min 0,0 UV-I 0 W/m 0,0 km/h (0 Bft)
20.05.2014 00:50 16,8 C 13,3 C 74 % 1007,5 hPa 0,0 l/m 0 min 0 min 0,0 UV-I 0 W/m 0,0 km/h (0 Bft)
20.05.2014 00:52 16,7 C 13,3 C 74 % 1007,6 hPa 0,0 l/m 0 min 0 min 0,0 UV-I 0 W/m 0,0 km/h (0 Bft)
20.05.2014 00:54 16,7 C 13,3 C 74 % 1007,6 hPa 0,0 l/m 0 min 0 min 0,0 UV-I 0 W/m 0,0 km/h (0 Bft)
20.05.2014 00:56 16,8 C 13,3 C 74 % 1007,6 hPa 0,0 l/m 0 min 0 min 0,0 UV-I 0 W/m 0,0 km/h (0 Bft)
20.05.2014 00:58 16,8 C 13,3 C 74 % 1007,6 hPa 0,0 l/m 0 min 0 min 0,0 UV-I 0 W/m 0,0 km/h (0 Bft)
20.05.2014 01:00 16,8 C 13,3 C 74 % 1007,6 hPa 0,0 l/m 0 min 0 min 0,0 UV-I 0 W/m 0,0 km/h (0 Bft)
20.05.2014 01:02 16,8 C 13,3 C 74 % 1007,6 hPa 0,0 l/m 0 min 0 min 0,0 UV-I 0 W/m 0,0 km/h (0 Bft)
20.05.2014 01:06 16,7 C 13,3 C 74 % 1007,6 hPa 0,0 l/m 0 min 0 min 0,0 UV-I 0 W/m 0,0 km/h (0 Bft)
20.05.2014 01:08 16,6 C 13,3 C 74 % 1007,6 hPa 0,0 l/m 0 min 0 min 0,0 UV-I 0 W/m 7,7 km/h (2 Bft)
20.05.2014 01:10 16,6 C 13,9 C 74 % 1007,6 hPa 0,0 l/m 0 min 0 min 0,0 UV-I 0 W/m 2,6 km/h (1 Bft)
20.05.2014 01:12 16,6 C 13,9 C 74 % 1007,7 hPa 0,0 l/m 0 min 0 min 0,0 UV-I 0 W/m 0,0 km/h (0 Bft)
20.05.2014 01:14 16,6 C 13,9 C 74 % 1007,7 hPa 0,0 l/m 0 min 0 min 0,0 UV-I 0 W/m 5,1 km/h (1 Bft)
20.05.2014 01:16 16,6 C 13,9 C 74 % 1007,6 hPa 0,0 l/m 0 min 0 min 0,0 UV-I 0 W/m 0,0 km/h (0 Bft)
20.05.2014 01:18 16,5 C 13,3 C 75 % 1007,6 hPa 0,0 l/m 0 min 0 min 0,0 UV-I 0 W/m 0,0 km/h (0 Bft)
20.05.2014 01:20 16,4 C 13,3 C 75 % 1007,6 hPa 0,0 l/m 0 min 0 min 0,0 UV-I 0 W/m 10,3 km/h (2 Bft)
20.05.2014 01:22 16,3 C 13,3 C 75 % 1007,6 hPa 0,0 l/m 0 min 0 min 0,0 UV-I 0 W/m 0,0 km/h (0 Bft)
20.05.2014 01:24 16,2 C 13,3 C 76 % 1007,7 hPa 0,0 l/m 0 min 0 min 0,0 UV-I 0 W/m 0,0 km/h (0 Bft)
20.05.2014 01:26 16,2 C 13,3 C 76 % 1007,6 hPa 0,0 l/m 0 min 0 min 0,0 UV-I 0 W/m 0,0 km/h (0 Bft)
20.05.2014 01:28 16,2 C 13,3 C 76 % 1007,6 hPa 0,0 l/m 0 min 0 min 0,0 UV-I 0 W/m 0,0 km/h (0 Bft)
20.05.2014 01:30 16,2 C 13,3 C 76 % 1007,6 hPa 0,0 l/m 0 min 0 min 0,0 UV-I 0 W/m 2,6 km/h (1 Bft)
20.05.2014 01:32 16,2 C 13,3 C 76 % 1007,7 hPa 0,0 l/m 0 min 0 min 0,0 UV-I 0 W/m 0,0 km/h (0 Bft)
20.05.2014 01:34 16,1 C 13,3 C 76 % 1007,7 hPa 0,0 l/m 0 min 0 min 0,0 UV-I 0 W/m 0,0 km/h (0 Bft)
20.05.2014 01:36 16,1 C 13,3 C 76 % 1007,8 hPa 0,0 l/m 0 min 0 min 0,0 UV-I 0 W/m 0,0 km/h (0 Bft)
20.05.2014 01:38 16,0 C 13,3 C 76 % 1007,7 hPa 0,0 l/m 0 min 0 min 0,0 UV-I 0 W/m 0,0 km/h (0 Bft)
20.05.2014 01:40 15,9 C 12,8 C 76 % 1007,8 hPa 0,0 l/m 0 min 0 min 0,0 UV-I 0 W/m 0,0 km/h (0 Bft)
20.05.2014 01:42 15,9 C 12,8 C 77 % 1007,8 hPa 0,0 l/m 0 min 0 min 0,0 UV-I 0 W/m 2,6 km/h (1 Bft)
20.05.2014 01:44 15,9 C 12,8 C 77 % 1007,8 hPa 0,0 l/m 0 min 0 min 0,0 UV-I 0 W/m 0,0 km/h (0 Bft)
20.05.2014 01:46 15,9 C 12,8 C 77 % 1007,8 hPa 0,0 l/m 0 min 0 min 0,0 UV-I 0 W/m 0,0 km/h (0 Bft)
20.05.2014 01:48 15,9 C 12,8 C 77 % 1008,0 hPa 0,0 l/m 0 min 0 min 0,0 UV-I 0 W/m 0,0 km/h (0 Bft)
20.05.2014 01:50 15,8 C 12,8 C 77 % 1008,0 hPa 0,0 l/m 0 min 0 min 0,0 UV-I 0 W/m 0,0 km/h (0 Bft)
20.05.2014 01:52 15,8 C 12,8 C 77 % 1008,0 hPa 0,0 l/m 0 min 0 min 0,0 UV-I 0 W/m 0,0 km/h (0 Bft)
20.05.2014 01:54 15,7 C 12,8 C 77 % 1008,1 hPa 0,0 l/m 0 min 0 min 0,0 UV-I 0 W/m 0,0 km/h (0 Bft)
20.05.2014 01:56 15,7 C 12,8 C 77 % 1008,2 hPa 0,0 l/m 0 min 0 min 0,0 UV-I 0 W/m 0,0 km/h (0 Bft)
20.05.2014 01:58 15,7 C 12,8 C 77 % 1008,1 hPa 0,0 l/m 0 min 0 min 0,0 UV-I 0 W/m 0,0 km/h (0 Bft)
20.05.2014 02:00 15,6 C 12,8 C 78 % 1008,1 hPa 0,0 l/m 0 min 0 min 0,0 UV-I 0 W/m 0,0 km/h (0 Bft)
20.05.2014 02:02 15,6 C 12,8 C 78 % 1008,1 hPa 0,0 l/m 0 min 0 min 0,0 UV-I 0 W/m 0,0 km/h (0 Bft)
20.05.2014 02:06 15,6 C 12,8 C 78 % 1008,2 hPa 0,0 l/m 0 min 0 min 0,0 UV-I 0 W/m 0,0 km/h (0 Bft)
20.05.2014 02:08 15,5 C 12,8 C 78 % 1008,2 hPa 0,0 l/m 0 min 0 min 0,0 UV-I 0 W/m 2,6 km/h (1 Bft)
20.05.2014 02:10 15,4 C 12,8 C 78 % 1008,2 hPa 0,0 l/m 0 min 0 min 0,0 UV-I 0 W/m 2,6 km/h (1 Bft)
20.05.2014 02:12 15,4 C 12,8 C 78 % 1008,2 hPa 0,0 l/m 0 min 0 min 0,0 UV-I 0 W/m 0,0 km/h (0 Bft)
20.05.2014 02:14 15,4 C 12,8 C 78 % 1008,2 hPa 0,0 l/m 0 min 0 min 0,0 UV-I 0 W/m 0,0 km/h (0 Bft)
20.05.2014 02:16 15,3 C 12,8 C 78 % 1008,2 hPa 0,0 l/m 0 min 0 min 0,0 UV-I 0 W/m 2,6 km/h (1 Bft)
20.05.2014 02:18 15,3 C 12,8 C 79 % 1008,2 hPa 0,0 l/m 0 min 0 min 0,0 UV-I 0 W/m 0,0 km/h (0 Bft)
20.05.2014 02:20 15,3 C 12,8 C 79 % 1008,2 hPa 0,0 l/m 0 min 0 min 0,0 UV-I 0 W/m 0,0 km/h (0 Bft)
20.05.2014 02:22 15,3 C 12,8 C 79 % 1008,3 hPa 0,0 l/m 0 min 0 min 0,0 UV-I 0 W/m 2,6 km/h (1 Bft)
20.05.2014 02:24 15,3 C 12,8 C 79 % 1008,3 hPa 0,0 l/m 0 min 0 min 0,0 UV-I 0 W/m 0,0 km/h (0 Bft)
20.05.2014 02:26 15,4 C 12,8 C 78 % 1008,3 hPa 0,0 l/m 0 min 0 min 0,0 UV-I 0 W/m 2,6 km/h (1 Bft)
20.05.2014 02:28 15,4 C 12,8 C 79 % 1008,3 hPa 0,0 l/m 0 min 0 min 0,0 UV-I 0 W/m 0,0 km/h (0 Bft)
20.05.2014 02:30 15,3 C 12,8 C 79 % 1008,3 hPa 0,0 l/m 0 min 0 min 0,0 UV-I 0 W/m 0,0 km/h (0 Bft)
20.05.2014 02:32 15,3 C 12,8 C 79 % 1008,3 hPa 0,0 l/m 0 min 0 min 0,0 UV-I 0 W/m 0,0 km/h (0 Bft)
20.05.2014 02:34 15,2 C 12,8 C 79 % 1008,4 hPa 0,0 l/m 0 min 0 min 0,0 UV-I 0 W/m 0,0 km/h (0 Bft)
20.05.2014 02:36 15,2 C 12,8 C 79 % 1008,4 hPa 0,0 l/m 0 min 0 min 0,0 UV-I 0 W/m 0,0 km/h (0 Bft)
20.05.2014 02:38 15,2 C 12,8 C 79 % 1008,4 hPa 0,0 l/m 0 min 0 min 0,0 UV-I 0 W/m 0,0 km/h (0 Bft)
20.05.2014 02:40 15,2 C 12,8 C 79 % 1008,3 hPa 0,0 l/m 0 min 0 min 0,0 UV-I 0 W/m 0,0 km/h (0 Bft)
20.05.2014 02:42 15,1 C 12,2 C 79 % 1008,4 hPa 0,0 l/m 0 min 0 min 0,0 UV-I 0 W/m 0,0 km/h (0 Bft)
20.05.2014 02:44 15,0 C 12,2 C 80 % 1008,5 hPa 0,0 l/m 0 min 0 min 0,0 UV-I 0 W/m 2,6 km/h (1 Bft)
20.05.2014 02:46 14,9 C 12,8 C 80 % 1008,5 hPa 0,0 l/m 0 min 0 min 0,0 UV-I 0 W/m 0,0 km/h (0 Bft)
20.05.2014 02:48 14,9 C 12,8 C 80 % 1008,5 hPa 0,0 l/m 0 min 0 min 0,0 UV-I 0 W/m 2,6 km/h (1 Bft)
20.05.2014 02:50 14,8 C 12,8 C 80 % 1008,5 hPa 0,0 l/m 0 min 0 min 0,0 UV-I 0 W/m 0,0 km/h (0 Bft)
20.05.2014 02:52 14,8 C 12,8 C 80 % 1008,4 hPa 0,0 l/m 0 min 0 min 0,0 UV-I 0 W/m 0,0 km/h (0 Bft)
20.05.2014 02:54 14,8 C 12,8 C 81 % 1008,5 hPa 0,0 l/m 0 min 0 min 0,0 UV-I 0 W/m 2,6 km/h (1 Bft)
20.05.2014 02:56 14,8 C 12,8 C 81 % 1008,5 hPa 0,0 l/m 0 min 0 min 0,0 UV-I 0 W/m 0,0 km/h (0 Bft)
20.05.2014 02:58 14,9 C 12,8 C 81 % 1008,6 hPa 0,0 l/m 0 min 0 min 0,0 UV-I 0 W/m 0,0 km/h (0 Bft)
20.05.2014 03:00 14,9 C 12,8 C 80 % 1008,6 hPa 0,0 l/m 0 min 0 min 0,0 UV-I 0 W/m 0,0 km/h (0 Bft)
20.05.2014 03:02 14,9 C 12,8 C 80 % 1008,6 hPa 0,0 l/m 0 min 0 min 0,0 UV-I 0 W/m 0,0 km/h (0 Bft)
20.05.2014 03:06 14,9 C 12,8 C 81 % 1008,7 hPa 0,0 l/m 0 min 0 min 0,0 UV-I 0 W/m 2,6 km/h (1 Bft)
20.05.2014 03:08 14,9 C 12,8 C 81 % 1008,8 hPa 0,0 l/m 0 min 0 min 0,0 UV-I 0 W/m 2,6 km/h (1 Bft)
20.05.2014 03:10 14,9 C 12,8 C 81 % 1008,8 hPa 0,0 l/m 0 min 0 min 0,0 UV-I 0 W/m 0,0 km/h (0 Bft)
20.05.2014 03:12 14,9 C 12,8 C 81 % 1008,7 hPa 0,0 l/m 0 min 0 min 0,0 UV-I 0 W/m 0,0 km/h (0 Bft)
20.05.2014 03:14 14,9 C 12,8 C 81 % 1008,7 hPa 0,0 l/m 0 min 0 min 0,0 UV-I 0 W/m 0,0 km/h (0 Bft)
20.05.2014 03:16 14,9 C 12,8 C 81 % 1008,7 hPa 0,0 l/m 0 min 0 min 0,0 UV-I 0 W/m 0,0 km/h (0 Bft)
20.05.2014 03:18 14,9 C 12,8 C 81 % 1008,7 hPa 0,0 l/m 0 min 0 min 0,0 UV-I 0 W/m 7,7 km/h (2 Bft)
20.05.2014 03:20 14,9 C 13,3 C 81 % 1008,7 hPa 0,0 l/m 0 min 0 min 0,0 UV-I 0 W/m 0,0 km/h (0 Bft)
20.05.2014 03:22 14,9 C 13,3 C 81 % 1008,7 hPa 0,0 l/m 0 min 0 min 0,0 UV-I 0 W/m 2,6 km/h (1 Bft)
20.05.2014 03:24 14,8 C 13,3 C 81 % 1008,7 hPa 0,0 l/m 0 min 0 min 0,0 UV-I 0 W/m 2,6 km/h (1 Bft)
20.05.2014 03:26 14,8 C 13,3 C 81 % 1008,8 hPa 0,0 l/m 0 min 0 min 0,0 UV-I 0 W/m 2,6 km/h (1 Bft)
20.05.2014 03:28 14,8 C 13,3 C 81 % 1008,8 hPa 0,0 l/m 0 min 0 min 0,0 UV-I 0 W/m 5,1 km/h (1 Bft)
20.05.2014 03:30 14,9 C 13,3 C 81 % 1008,7 hPa 0,0 l/m 0 min 0 min 0,0 UV-I 0 W/m 0,0 km/h (0 Bft)
20.05.2014 03:32 14,9 C 12,8 C 81 % 1008,7 hPa 0,0 l/m 0 min 0 min 0,0 UV-I 0 W/m 5,1 km/h (1 Bft)
20.05.2014 03:34 14,9 C 12,8 C 81 % 1008,7 hPa 0,0 l/m 0 min 0 min 0,0 UV-I 0 W/m 0,0 km/h (0 Bft)
20.05.2014 03:36 14,8 C 12,8 C 81 % 1008,7 hPa 0,0 l/m 0 min 0 min 0,0 UV-I 0 W/m 2,6 km/h (1 Bft)
20.05.2014 03:38 14,8 C 12,8 C 81 % 1008,7 hPa 0,0 l/m 0 min 0 min 0,0 UV-I 0 W/m 0,0 km/h (0 Bft)
20.05.2014 03:40 14,8 C 12,8 C 81 % 1008,7 hPa 0,0 l/m 0 min 0 min 0,0 UV-I 0 W/m 0,0 km/h (0 Bft)
20.05.2014 03:42 14,8 C 12,8 C 81 % 1008,7 hPa 0,0 l/m 0 min 0 min 0,0 UV-I 0 W/m 0,0 km/h (0 Bft)
20.05.2014 03:44 14,8 C 12,8 C 81 % 1008,7 hPa 0,0 l/m 0 min 0 min 0,0 UV-I 0 W/m 0,0 km/h (0 Bft)
20.05.2014 03:46 14,7 C 12,8 C 81 % 1008,7 hPa 0,0 l/m 0 min 0 min 0,0 UV-I 0 W/m 0,0 km/h (0 Bft)
20.05.2014 03:48 14,7 C 12,8 C 81 % 1008,7 hPa 0,0 l/m 0 min 0 min 0,0 UV-I 0 W/m 0,0 km/h (0 Bft)
20.05.2014 03:50 14,7 C 12,8 C 81 % 1008,7 hPa 0,0 l/m 0 min 0 min 0,0 UV-I 0 W/m 0,0 km/h (0 Bft)
20.05.2014 03:52 14,7 C 12,8 C 81 % 1008,8 hPa 0,0 l/m 0 min 0 min 0,0 UV-I 0 W/m 0,0 km/h (0 Bft)
20.05.2014 03:54 14,6 C 12,2 C 81 % 1008,7 hPa 0,0 l/m 0 min 0 min 0,0 UV-I 0 W/m 0,0 km/h (0 Bft)
20.05.2014 03:56 14,5 C 12,2 C 82 % 1008,8 hPa 0,0 l/m 0 min 0 min 0,0 UV-I 0 W/m 0,0 km/h (0 Bft)
20.05.2014 03:58 14,4 C 12,2 C 82 % 1008,8 hPa 0,0 l/m 0 min 0 min 0,0 UV-I 0 W/m 0,0 km/h (0 Bft)
20.05.2014 04:00 14,4 C 12,2 C 82 % 1008,8 hPa 0,0 l/m 0 min 0 min 0,0 UV-I 0 W/m 0,0 km/h (0 Bft)
20.05.2014 04:02 14,4 C 12,2 C 82 % 1008,8 hPa 0,0 l/m 0 min 0 min 0,0 UV-I 0 W/m 0,0 km/h (0 Bft)
20.05.2014 04:06 14,4 C 12,2 C 82 % 1008,9 hPa 0,0 l/m 0 min 0 min 0,0 UV-I 0 W/m 0,0 km/h (0 Bft)
20.05.2014 04:08 14,4 C 12,2 C 82 % 1008,9 hPa 0,0 l/m 0 min 0 min 0,0 UV-I 0 W/m 2,6 km/h (1 Bft)
20.05.2014 04:10 14,4 C 12,8 C 82 % 1009,0 hPa 0,0 l/m 0 min 0 min 0,0 UV-I 0 W/m 0,0 km/h (0 Bft)
20.05.2014 04:12 14,4 C 12,8 C 83 % 1009,1 hPa 0,0 l/m 0 min 0 min 0,0 UV-I 0 W/m 2,6 km/h (1 Bft)
20.05.2014 04:14 14,4 C 12,8 C 83 % 1009,1 hPa 0,0 l/m 0 min 0 min 0,0 UV-I 0 W/m 0,0 km/h (0 Bft)
20.05.2014 04:16 14,4 C 12,8 C 83 % 1009,0 hPa 0,0 l/m 0 min 0 min 0,0 UV-I 0 W/m 0,0 km/h (0 Bft)
20.05.2014 04:18 14,4 C 12,8 C 83 % 1009,1 hPa 0,0 l/m 0 min 0 min 0,0 UV-I 0 W/m 2,6 km/h (1 Bft)
20.05.2014 04:20 14,4 C 12,8 C 83 % 1009,0 hPa 0,0 l/m 0 min 0 min 0,0 UV-I 0 W/m 5,1 km/h (1 Bft)
20.05.2014 04:22 14,4 C 12,8 C 83 % 1009,1 hPa 0,0 l/m 0 min 0 min 0,0 UV-I 0 W/m 2,6 km/h (1 Bft)
20.05.2014 04:24 14,3 C 12,8 C 83 % 1009,1 hPa 0,0 l/m 0 min 0 min 0,0 UV-I 0 W/m 7,7 km/h (2 Bft)
20.05.2014 04:26 14,3 C 12,8 C 83 % 1009,1 hPa 0,0 l/m 0 min 0 min 0,0 UV-I 0 W/m 0,0 km/h (0 Bft)
20.05.2014 04:28 14,3 C 12,8 C 84 % 1009,1 hPa 0,0 l/m 0 min 0 min 0,0 UV-I 0 W/m 0,0 km/h (0 Bft)
20.05.2014 04:30 14,3 C 12,8 C 83 % 1009,1 hPa 0,0 l/m 0 min 0 min 0,0 UV-I 0 W/m 0,0 km/h (0 Bft)
20.05.2014 04:32 14,3 C 12,8 C 83 % 1009,1 hPa 0,0 l/m 0 min 0 min 0,0 UV-I 0 W/m 0,0 km/h (0 Bft)
20.05.2014 04:34 14,3 C 12,8 C 83 % 1009,0 hPa 0,0 l/m 0 min 0 min 0,0 UV-I 0 W/m 0,0 km/h (0 Bft)
20.05.2014 04:36 14,3 C 12,8 C 83 % 1009,0 hPa 0,0 l/m 0 min 0 min 0,0 UV-I 0 W/m 0,0 km/h (0 Bft)
20.05.2014 04:38 14,3 C 12,8 C 83 % 1009,1 hPa 0,0 l/m 0 min 0 min 0,0 UV-I 0 W/m 0,0 km/h (0 Bft)
20.05.2014 04:40 14,3 C 12,8 C 83 % 1009,1 hPa 0,0 l/m 0 min 0 min 0,0 UV-I 0 W/m 0,0 km/h (0 Bft)
20.05.2014 04:42 14,3 C 12,2 C 83 % 1009,2 hPa 0,0 l/m 0 min 0 min 0,0 UV-I 0 W/m 0,0 km/h (0 Bft)
20.05.2014 04:44 14,3 C 12,2 C 83 % 1009,2 hPa 0,0 l/m 0 min 0 min 0,0 UV-I 0 W/m 2,6 km/h (1 Bft)
20.05.2014 04:46 14,3 C 12,2 C 83 % 1009,2 hPa 0,0 l/m 0 min 0 min 0,0 UV-I 0 W/m 0,0 km/h (0 Bft)
20.05.2014 04:48 14,3 C 12,2 C 83 % 1009,2 hPa 0,0 l/m 0 min 0 min 0,0 UV-I 0 W/m 0,0 km/h (0 Bft)
20.05.2014 04:50 14,3 C 12,2 C 83 % 1009,2 hPa 0,0 l/m 0 min 0 min 0,0 UV-I 0 W/m 0,0 km/h (0 Bft)
20.05.2014 04:52 14,3 C 12,2 C 83 % 1009,2 hPa 0,0 l/m 0 min 0 min 0,0 UV-I 0 W/m 0,0 km/h (0 Bft)
20.05.2014 04:54 14,3 C 12,2 C 83 % 1009,2 hPa 0,0 l/m 0 min 0 min 0,0 UV-I 0 W/m 0,0 km/h (0 Bft)
20.05.2014 04:56 14,2 C 12,2 C 83 % 1009,3 hPa 0,0 l/m 0 min 0 min 0,0 UV-I 0 W/m 0,0 km/h (0 Bft)
20.05.2014 04:58 14,2 C 12,2 C 83 % 1009,3 hPa 0,0 l/m 0 min 0 min 0,0 UV-I 0 W/m 0,0 km/h (0 Bft)
20.05.2014 05:00 14,2 C 12,2 C 84 % 1009,3 hPa 0,0 l/m 0 min 0 min 0,0 UV-I 0 W/m 0,0 km/h (0 Bft)
20.05.2014 05:02 14,2 C 12,2 C 84 % 1009,3 hPa 0,0 l/m 0 min 0 min 0,0 UV-I 0 W/m 0,0 km/h (0 Bft)
20.05.2014 05:06 14,2 C 12,8 C 84 % 1009,2 hPa 0,0 l/m 0 min 0 min 0,0 UV-I 0 W/m 0,0 km/h (0 Bft)
20.05.2014 05:08 14,2 C 12,8 C 84 % 1009,3 hPa 0,0 l/m 0 min 0 min 0,0 UV-I 0 W/m 0,0 km/h (0 Bft)
20.05.2014 05:10 14,2 C 12,8 C 84 % 1009,4 hPa 0,0 l/m 0 min 0 min 0,0 UV-I 0 W/m 0,0 km/h (0 Bft)
20.05.2014 05:12 14,2 C 12,8 C 84 % 1009,4 hPa 0,0 l/m 0 min 0 min 0,0 UV-I 0 W/m 0,0 km/h (0 Bft)
20.05.2014 05:14 14,2 C 12,8 C 84 % 1009,4 hPa 0,0 l/m 0 min 0 min 0,0 UV-I 0 W/m 2,6 km/h (1 Bft)
20.05.2014 05:16 14,2 C 12,8 C 84 % 1009,4 hPa 0,0 l/m 0 min 0 min 0,0 UV-I 0 W/m 0,0 km/h (0 Bft)
20.05.2014 05:18 14,2 C 12,8 C 84 % 1009,4 hPa 0,0 l/m 0 min 0 min 0,0 UV-I 0 W/m 0,0 km/h (0 Bft)
20.05.2014 05:20 14,2 C 12,8 C 84 % 1009,4 hPa 0,0 l/m 0 min 0 min 0,0 UV-I 0 W/m 0,0 km/h (0 Bft)
20.05.2014 05:22 14,2 C 12,8 C 84 % 1009,4 hPa 0,0 l/m 0 min 0 min 0,0 UV-I 0 W/m 0,0 km/h (0 Bft)
20.05.2014 05:24 14,2 C 12,8 C 84 % 1009,3 hPa 0,0 l/m 0 min 0 min 0,0 UV-I 0 W/m 0,0 km/h (0 Bft)
20.05.2014 05:26 14,2 C 12,8 C 84 % 1009,3 hPa 0,0 l/m 0 min 0 min 0,0 UV-I 0 W/m 0,0 km/h (0 Bft)
20.05.2014 05:28 14,2 C 12,8 C 84 % 1009,4 hPa 0,0 l/m 0 min 0 min 0,0 UV-I 0 W/m 0,0 km/h (0 Bft)
20.05.2014 05:30 14,2 C 12,8 C 84 % 1009,4 hPa 0,0 l/m 0 min 0 min 0,0 UV-I 0 W/m 0,0 km/h (0 Bft)
20.05.2014 05:32 14,2 C 12,8 C 85 % 1009,4 hPa 0,0 l/m 0 min 0 min 0,0 UV-I 0 W/m 0,0 km/h (0 Bft)
20.05.2014 05:34 14,2 C 12,8 C 85 % 1009,4 hPa 0,0 l/m 0 min 0 min 0,0 UV-I 5 W/m 0,0 km/h (0 Bft)
20.05.2014 05:36 14,2 C 12,8 C 85 % 1009,4 hPa 0,0 l/m 0 min 0 min 0,0 UV-I 5 W/m 0,0 km/h (0 Bft)
20.05.2014 05:38 14,2 C 12,2 C 85 % 1009,4 hPa 0,0 l/m 0 min 0 min 0,0 UV-I 5 W/m 0,0 km/h (0 Bft)
20.05.2014 05:40 14,2 C 12,2 C 85 % 1009,5 hPa 0,0 l/m 0 min 0 min 0,0 UV-I 7 W/m 2,6 km/h (1 Bft)
20.05.2014 05:42 14,2 C 12,8 C 85 % 1009,4 hPa 0,0 l/m 0 min 0 min 0,0 UV-I 7 W/m 0,0 km/h (0 Bft)
20.05.2014 05:44 14,2 C 12,8 C 85 % 1009,4 hPa 0,0 l/m 0 min 0 min 0,0 UV-I 7 W/m 7,7 km/h (2 Bft)
20.05.2014 05:46 14,2 C 12,8 C 85 % 1009,5 hPa 0,0 l/m 0 min 0 min 0,0 UV-I 9 W/m 2,6 km/h (1 Bft)
20.05.2014 05:48 14,2 C 12,8 C 85 % 1009,4 hPa 0,0 l/m 0 min 0 min 0,0 UV-I 9 W/m 7,7 km/h (2 Bft)
20.05.2014 05:50 14,3 C 12,8 C 85 % 1009,4 hPa 0,0 l/m 0 min 0 min 0,0 UV-I 11 W/m 7,7 km/h (2 Bft)
20.05.2014 05:52 14,4 C 12,8 C 85 % 1009,5 hPa 0,0 l/m 0 min 0 min 0,0 UV-I 12 W/m 0,0 km/h (0 Bft)
20.05.2014 05:54 14,5 C 13,3 C 85 % 1009,4 hPa 0,0 l/m 0 min 0 min 0,0 UV-I 14 W/m 2,6 km/h (1 Bft)
20.05.2014 05:56 14,6 C 13,3 C 84 % 1009,4 hPa 0,0 l/m 0 min 0 min 0,0 UV-I 16 W/m 0,0 km/h (0 Bft)
20.05.2014 05:58 14,6 C 13,3 C 84 % 1009,4 hPa 0,0 l/m 0 min 0 min 0,0 UV-I 19 W/m 5,1 km/h (1 Bft)
20.05.2014 06:00 14,7 C 13,3 C 84 % 1009,4 hPa 0,0 l/m 0 min 0 min 0,0 UV-I 21 W/m 7,7 km/h (2 Bft)
20.05.2014 06:02 14,7 C 13,3 C 84 % 1009,4 hPa 0,0 l/m 0 min 0 min 0,0 UV-I 21 W/m 5,1 km/h (1 Bft)
20.05.2014 06:06 14,8 C 13,3 C 83 % 1009,5 hPa 0,0 l/m 0 min 0 min 0,0 UV-I 16 W/m 7,7 km/h (2 Bft)
20.05.2014 06:08 14,8 C 13,3 C 83 % 1009,5 hPa 0,0 l/m 0 min 0 min 0,0 UV-I 14 W/m 7,7 km/h (2 Bft)
20.05.2014 06:10 14,9 C 13,3 C 83 % 1009,4 hPa 0,0 l/m 0 min 0 min 0,0 UV-I 14 W/m 5,1 km/h (1 Bft)
20.05.2014 06:12 14,9 C 13,3 C 83 % 1009,4 hPa 0,0 l/m 0 min 0 min 0,0 UV-I 14 W/m 2,6 km/h (1 Bft)
20.05.2014 06:14 14,9 C 13,3 C 83 % 1009,4 hPa 0,0 l/m 0 min 0 min 0,0 UV-I 14 W/m 7,7 km/h (2 Bft)
20.05.2014 06:16 14,9 C 13,3 C 83 % 1009,5 hPa 0,0 l/m 0 min 0 min 0,0 UV-I 14 W/m 5,1 km/h (1 Bft)
20.05.2014 06:18 15,0 C 13,9 C 83 % 1009,6 hPa 0,0 l/m 0 min 0 min 0,0 UV-I 12 W/m 2,6 km/h (1 Bft)
20.05.2014 06:20 15,0 C 13,9 C 83 % 1009,5 hPa 0,0 l/m 0 min 0 min 0,0 UV-I 12 W/m 10,3 km/h (2 Bft)
20.05.2014 06:22 15,0 C 13,9 C 82 % 1009,6 hPa 0,0 l/m 0 min 0 min 0,0 UV-I 14 W/m 0,0 km/h (0 Bft)
20.05.2014 06:24 15,1 C 13,9 C 82 % 1009,6 hPa 0,0 l/m 0 min 0 min 0,0 UV-I 18 W/m 0,0 km/h (0 Bft)
20.05.2014 06:26 15,1 C 13,9 C 82 % 1009,7 hPa 0,0 l/m 0 min 0 min 0,0 UV-I 19 W/m 0,0 km/h (0 Bft)
20.05.2014 06:28 15,1 C 13,9 C 82 % 1009,7 hPa 0,0 l/m 0 min 0 min 0,0 UV-I 19 W/m 0,0 km/h (0 Bft)
20.05.2014 06:30 15,1 C 13,9 C 82 % 1009,7 hPa 0,0 l/m 0 min 0 min 0,0 UV-I 21 W/m 2,6 km/h (1 Bft)
20.05.2014 06:32 15,1 C 13,9 C 82 % 1009,7 hPa 0,0 l/m 0 min 0 min 0,0 UV-I 23 W/m 0,0 km/h (0 Bft)
20.05.2014 06:34 15,1 C 13,9 C 82 % 1009,8 hPa 0,0 l/m 0 min 0 min 0,0 UV-I 25 W/m 0,0 km/h (0 Bft)
20.05.2014 06:36 15,1 C 13,9 C 82 % 1009,8 hPa 0,0 l/m 0 min 0 min 0,0 UV-I 26 W/m 0,0 km/h (0 Bft)
20.05.2014 06:38 15,1 C 13,9 C 82 % 1009,8 hPa 0,0 l/m 0 min 0 min 0,0 UV-I 30 W/m 0,0 km/h (0 Bft)
20.05.2014 06:40 15,1 C 13,9 C 82 % 1009,9 hPa 0,0 l/m 0 min 0 min 0,0 UV-I 35 W/m 5,1 km/h (1 Bft)
20.05.2014 06:42 15,1 C 13,9 C 82 % 1009,8 hPa 0,0 l/m 0 min 0 min 0,0 UV-I 40 W/m 10,3 km/h (2 Bft)
20.05.2014 06:44 15,1 C 13,9 C 82 % 1009,8 hPa 0,0 l/m 0 min 0 min 0,0 UV-I 42 W/m 7,7 km/h (2 Bft)
20.05.2014 06:46 15,1 C 13,9 C 82 % 1009,9 hPa 0,0 l/m 0 min 0 min 0,0 UV-I 46 W/m 10,3 km/h (2 Bft)
20.05.2014 06:48 15,1 C 13,9 C 82 % 1009,8 hPa 0,0 l/m 0 min 0 min 0,0 UV-I 54 W/m 7,7 km/h (2 Bft)
20.05.2014 06:50 15,1 C 13,9 C 83 % 1009,9 hPa 0,0 l/m 0 min 0 min 0,0 UV-I 58 W/m 0,0 km/h (0 Bft)
20.05.2014 06:52 15,2 C 13,9 C 83 % 1009,9 hPa 0,0 l/m 0 min 0 min 0,0 UV-I 60 W/m 0,0 km/h (0 Bft)
20.05.2014 06:54 15,2 C 13,9 C 83 % 1009,9 hPa 0,0 l/m 0 min 0 min 0,0 UV-I 62 W/m 0,0 km/h (0 Bft)
20.05.2014 06:56 15,2 C 13,9 C 83 % 1010,1 hPa 0,0 l/m 0 min 0 min 0,0 UV-I 63 W/m 0,0 km/h (0 Bft)
20.05.2014 06:58 15,2 C 13,9 C 83 % 1010,1 hPa 0,0 l/m 0 min 0 min 0,0 UV-I 69 W/m 5,1 km/h (1 Bft)
20.05.2014 07:00 15,3 C 13,9 C 83 % 1010,0 hPa 0,0 l/m 0 min 0 min 0,0 UV-I 72 W/m 5,1 km/h (1 Bft)
20.05.2014 07:02 15,3 C 14,4 C 83 % 1010,1 hPa 0,0 l/m 0 min 0 min 0,0 UV-I 72 W/m 2,6 km/h (1 Bft)
20.05.2014 07:06 15,5 C 14,4 C 83 % 1010,0 hPa 0,0 l/m 0 min 0 min 0,0 UV-I 74 W/m 7,7 km/h (2 Bft)
20.05.2014 07:08 15,6 C 14,4 C 82 % 1010,0 hPa 0,0 l/m 0 min 0 min 0,0 UV-I 74 W/m 10,3 km/h (2 Bft)
20.05.2014 07:10 15,6 C 14,4 C 82 % 1010,0 hPa 0,0 l/m 0 min 0 min 0,0 UV-I 77 W/m 7,7 km/h (2 Bft)
20.05.2014 07:12 15,7 C 14,4 C 82 % 1010,0 hPa 0,0 l/m 0 min 0 min 0,0 UV-I 79 W/m 5,1 km/h (1 Bft)
20.05.2014 07:14 15,7 C 14,4 C 82 % 1010,1 hPa 0,0 l/m 0 min 0 min 0,0 UV-I 77 W/m 7,7 km/h (2 Bft)
20.05.2014 07:16 15,8 C 14,4 C 81 % 1010,1 hPa 0,0 l/m 0 min 0 min 0,0 UV-I 74 W/m 5,1 km/h (1 Bft)
20.05.2014 07:18 15,9 C 14,4 C 81 % 1010,1 hPa 0,0 l/m 0 min 0 min 0,0 UV-I 69 W/m 5,1 km/h (1 Bft)
20.05.2014 07:20 15,9 C 14,4 C 81 % 1010,1 hPa 0,0 l/m 0 min 0 min 0,0 UV-I 67 W/m 7,7 km/h (2 Bft)
20.05.2014 07:22 15,9 C 15,0 C 80 % 1010,1 hPa 0,0 l/m 0 min 0 min 0,0 UV-I 67 W/m 12,9 km/h (3 Bft)
20.05.2014 07:24 15,9 C 15,0 C 80 % 1010,1 hPa 0,0 l/m 0 min 0 min 0,0 UV-I 69 W/m 12,9 km/h (3 Bft)
20.05.2014 07:26 15,9 C 15,0 C 80 % 1010,1 hPa 0,0 l/m 0 min 0 min 0,0 UV-I 72 W/m 7,7 km/h (2 Bft)
20.05.2014 07:28 15,9 C 15,0 C 80 % 1010,1 hPa 0,0 l/m 0 min 0 min 0,0 UV-I 81 W/m 7,7 km/h (2 Bft)
20.05.2014 07:30 16,0 C 15,0 C 80 % 1010,2 hPa 0,0 l/m 0 min 0 min 0,0 UV-I 84 W/m 0,0 km/h (0 Bft)
20.05.2014 07:32 16,1 C 15,0 C 80 % 1010,1 hPa 0,0 l/m 0 min 0 min 0,0 UV-I 86 W/m 5,1 km/h (1 Bft)
20.05.2014 07:34 16,1 C 15,0 C 80 % 1010,1 hPa 0,0 l/m 0 min 0 min 0,0 UV-I 86 W/m 7,7 km/h (2 Bft)
20.05.2014 07:36 16,2 C 15,0 C 80 % 1010,1 hPa 0,0 l/m 0 min 0 min 0,0 UV-I 88 W/m 7,7 km/h (2 Bft)
20.05.2014 07:38 16,2 C 15,0 C 80 % 1010,2 hPa 0,0 l/m 0 min 0 min 0,0 UV-I 90 W/m 7,7 km/h (2 Bft)
20.05.2014 07:40 16,2 C 15,0 C 81 % 1010,1 hPa 0,0 l/m 0 min 0 min 0,0 UV-I 91 W/m 5,1 km/h (1 Bft)
20.05.2014 07:42 16,2 C 15,0 C 80 % 1010,2 hPa 0,0 l/m 0 min 0 min 0,0 UV-I 93 W/m 2,6 km/h (1 Bft)
20.05.2014 07:44 16,3 C 15,0 C 81 % 1010,1 hPa 0,0 l/m 0 min 0 min 0,0 UV-I 95 W/m 0,0 km/h (0 Bft)
20.05.2014 07:46 16,3 C 15,0 C 80 % 1010,2 hPa 0,0 l/m 0 min 0 min 0,0 UV-I 100 W/m 0,0 km/h (0 Bft)
20.05.2014 07:48 16,3 C 15,0 C 80 % 1010,2 hPa 0,0 l/m 0 min 0 min 0,0 UV-I 104 W/m 0,0 km/h (0 Bft)
20.05.2014 07:50 16,4 C 15,6 C 80 % 1010,1 hPa 0,0 l/m 0 min 0 min 0,0 UV-I 111 W/m 0,0 km/h (0 Bft)
20.05.2014 07:52 16,4 C 15,6 C 80 % 1010,1 hPa 0,0 l/m 0 min 0 min 0,0 UV-I 109 W/m 2,6 km/h (1 Bft)
20.05.2014 07:54 16,5 C 15,6 C 80 % 1010,2 hPa 0,0 l/m 0 min 0 min 0,0 UV-I 102 W/m 0,0 km/h (0 Bft)
20.05.2014 07:56 16,6 C 15,6 C 81 % 1010,2 hPa 0,0 l/m 0 min 0 min 0,0 UV-I 98 W/m 5,1 km/h (1 Bft)
20.05.2014 07:58 16,6 C 15,6 C 81 % 1010,2 hPa 0,0 l/m 0 min 0 min 0,0 UV-I 95 W/m 7,7 km/h (2 Bft)
20.05.2014 08:00 16,6 C 15,6 C 80 % 1010,2 hPa 0,0 l/m 0 min 0 min 0,0 UV-I 93 W/m 7,7 km/h (2 Bft)
20.05.2014 08:02 16,6 C 15,6 C 80 % 1010,2 hPa 0,0 l/m 0 min 0 min 0,0 UV-I 93 W/m 10,3 km/h (2 Bft)
20.05.2014 08:06 16,7 C 15,6 C 81 % 1010,2 hPa 0,0 l/m 0 min 0 min 0,0 UV-I 113 W/m 2,6 km/h (1 Bft)
20.05.2014 08:08 16,7 C 15,6 C 81 % 1010,3 hPa 0,0 l/m 0 min 0 min 0,0 UV-I 155 W/m 0,0 km/h (0 Bft)
20.05.2014 08:10 16,8 C 15,6 C 81 % 1010,3 hPa 0,0 l/m 2 min 0 min 0,0 UV-I 200 W/m 0,0 km/h (0 Bft)
20.05.2014 08:12 16,9 C 16,1 C 81 % 1010,3 hPa 0,0 l/m 2 min 0 min 0,0 UV-I 214 W/m 0,0 km/h (0 Bft)
20.05.2014 08:14 17,0 C 16,1 C 81 % 1010,3 hPa 0,0 l/m 0 min 0 min 0,0 UV-I 197 W/m 0,0 km/h (0 Bft)
20.05.2014 08:16 17,1 C 16,1 C 81 % 1010,4 hPa 0,0 l/m 0 min 0 min 0,0 UV-I 193 W/m 2,6 km/h (1 Bft)
20.05.2014 08:18 17,2 C 16,7 C 80 % 1010,4 hPa 0,0 l/m 0 min 0 min 0,0 UV-I 193 W/m 0,0 km/h (0 Bft)
20.05.2014 08:20 17,3 C 16,7 C 80 % 1010,4 hPa 0,0 l/m 0 min 0 min 0,0 UV-I 195 W/m 0,0 km/h (0 Bft)
20.05.2014 08:22 17,4 C 16,7 C 80 % 1010,4 hPa 0,0 l/m 0 min 0 min 0,0 UV-I 199 W/m 7,7 km/h (2 Bft)
20.05.2014 08:24 17,5 C 16,7 C 79 % 1010,4 hPa 0,0 l/m 0 min 0 min 0,0 UV-I 209 W/m 7,7 km/h (2 Bft)
20.05.2014 08:26 17,7 C 16,7 C 79 % 1010,4 hPa 0,0 l/m 2 min 0 min 0,0 UV-I 227 W/m 0,0 km/h (0 Bft)
20.05.2014 08:28 17,7 C 17,2 C 79 % 1010,5 hPa 0,0 l/m 0 min 0 min 0,0 UV-I 202 W/m 5,1 km/h (1 Bft)
20.05.2014 08:30 17,8 C 17,2 C 78 % 1010,5 hPa 0,0 l/m 0 min 0 min 0,0 UV-I 176 W/m 7,7 km/h (2 Bft)
20.05.2014 08:32 17,9 C 17,2 C 78 % 1010,4 hPa 0,0 l/m 0 min 0 min 0,0 UV-I 163 W/m 0,0 km/h (0 Bft)
20.05.2014 08:34 17,9 C 17,2 C 78 % 1010,4 hPa 0,0 l/m 0 min 0 min 0,0 UV-I 156 W/m 7,7 km/h (2 Bft)
20.05.2014 08:36 17,9 C 17,2 C 77 % 1010,5 hPa 0,0 l/m 0 min 0 min 0,0 UV-I 158 W/m 7,7 km/h (2 Bft)
20.05.2014 08:38 17,9 C 17,2 C 77 % 1010,4 hPa 0,0 l/m 0 min 0 min 0,0 UV-I 160 W/m 10,3 km/h (2 Bft)
20.05.2014 08:40 17,9 C 17,2 C 77 % 1010,4 hPa 0,0 l/m 0 min 0 min 0,0 UV-I 171 W/m 7,7 km/h (2 Bft)
20.05.2014 08:42 18,0 C 17,2 C 77 % 1010,5 hPa 0,0 l/m 0 min 0 min 0,0 UV-I 174 W/m 10,3 km/h (2 Bft)
20.05.2014 08:44 18,0 C 17,2 C 77 % 1010,5 hPa 0,0 l/m 0 min 0 min 0,0 UV-I 172 W/m 10,3 km/h (2 Bft)
20.05.2014 08:46 18,1 C 17,2 C 78 % 1010,6 hPa 0,0 l/m 0 min 0 min 0,0 UV-I 165 W/m 12,9 km/h (3 Bft)
20.05.2014 08:48 18,1 C 17,2 C 78 % 1010,7 hPa 0,0 l/m 0 min 0 min 0,0 UV-I 169 W/m 2,6 km/h (1 Bft)
20.05.2014 08:50 18,2 C 17,2 C 77 % 1010,7 hPa 0,0 l/m 0 min 0 min 0,0 UV-I 178 W/m 7,7 km/h (2 Bft)
20.05.2014 08:52 18,2 C 17,2 C 77 % 1010,7 hPa 0,0 l/m 0 min 0 min 0,0 UV-I 199 W/m 10,3 km/h (2 Bft)
20.05.2014 08:54 18,3 C 17,8 C 76 % 1010,7 hPa 0,0 l/m 0 min 0 min 0,0 UV-I 207 W/m 12,9 km/h (3 Bft)
20.05.2014 08:56 18,3 C 17,8 C 77 % 1010,7 hPa 0,0 l/m 0 min 0 min 0,0 UV-I 221 W/m 10,3 km/h (2 Bft)
20.05.2014 08:58 18,5 C 17,8 C 76 % 1010,7 hPa 0,0 l/m 0 min 0 min 0,0 UV-I 209 W/m 10,3 km/h (2 Bft)
20.05.2014 09:00 18,6 C 17,8 C 76 % 1010,7 hPa 0,0 l/m 0 min 0 min 0,0 UV-I 199 W/m 10,3 km/h (2 Bft)
20.05.2014 09:02 18,6 C 17,8 C 75 % 1010,8 hPa 0,0 l/m 0 min 0 min 0,0 UV-I 202 W/m 7,7 km/h (2 Bft)
20.05.2014 09:06 18,7 C 17,8 C 76 % 1010,7 hPa 0,0 l/m 0 min 0 min 0,0 UV-I 207 W/m 10,3 km/h (2 Bft)
20.05.2014 09:08 18,7 C 17,8 C 76 % 1010,7 hPa 0,0 l/m 0 min 0 min 0,0 UV-I 207 W/m 10,3 km/h (2 Bft)
20.05.2014 09:10 18,7 C 17,8 C 75 % 1010,7 hPa 0,0 l/m 0 min 0 min 0,0 UV-I 195 W/m 10,3 km/h (2 Bft)
20.05.2014 09:12 18,8 C 18,3 C 76 % 1010,7 hPa 0,0 l/m 0 min 0 min 0,0 UV-I 188 W/m 7,7 km/h (2 Bft)
20.05.2014 09:14 18,8 C 18,3 C 75 % 1010,8 hPa 0,0 l/m 0 min 0 min 0,0 UV-I 193 W/m 10,3 km/h (2 Bft)
20.05.2014 09:16 18,8 C 18,3 C 75 % 1010,8 hPa 0,0 l/m 0 min 0 min 0,0 UV-I 202 W/m 10,3 km/h (2 Bft)
20.05.2014 09:18 18,9 C 18,3 C 76 % 1010,9 hPa 0,0 l/m 0 min 0 min 0,0 UV-I 223 W/m 7,7 km/h (2 Bft)
20.05.2014 09:20 18,9 C 18,3 C 76 % 1010,9 hPa 0,0 l/m 0 min 0 min 0,0 UV-I 265 W/m 5,1 km/h (1 Bft)
20.05.2014 09:22 19,1 C 18,3 C 77 % 1010,9 hPa 0,0 l/m 0 min 0 min 0,0 UV-I 264 W/m 5,1 km/h (1 Bft)
20.05.2014 09:24 19,2 C 18,9 C 76 % 1010,9 hPa 0,0 l/m 0 min 0 min 0,0 UV-I 255 W/m 0,0 km/h (0 Bft)
20.05.2014 09:26 19,3 C 18,9 C 76 % 1010,9 hPa 0,0 l/m 0 min 0 min 0,0 UV-I 239 W/m 5,1 km/h (1 Bft)
20.05.2014 09:28 19,3 C 18,9 C 77 % 1011,0 hPa 0,0 l/m 0 min 0 min 0,0 UV-I 241 W/m 5,1 km/h (1 Bft)
20.05.2014 09:30 19,3 C 18,9 C 75 % 1010,9 hPa 0,0 l/m 0 min 0 min 0,0 UV-I 253 W/m 10,3 km/h (2 Bft)
20.05.2014 09:32 19,4 C 18,9 C 75 % 1010,9 hPa 0,0 l/m 0 min 0 min 0,5 UV-I 267 W/m 7,7 km/h (2 Bft)
20.05.2014 09:34 19,5 C 18,9 C 76 % 1010,9 hPa 0,0 l/m 0 min 0 min 0,6 UV-I 301 W/m 0,0 km/h (0 Bft)
20.05.2014 09:36 19,6 C 18,9 C 75 % 1010,9 hPa 0,0 l/m 0 min 0 min 0,5 UV-I 278 W/m 0,0 km/h (0 Bft)
20.05.2014 09:38 19,6 C 18,9 C 76 % 1010,8 hPa 0,0 l/m 0 min 0 min 0,5 UV-I 309 W/m 2,6 km/h (1 Bft)
20.05.2014 09:40 19,7 C 18,9 C 75 % 1010,8 hPa 0,0 l/m 0 min 0 min 0,5 UV-I 250 W/m 2,6 km/h (1 Bft)
20.05.2014 09:42 19,7 C 18,9 C 73 % 1010,8 hPa 0,0 l/m 0 min 0 min 0,0 UV-I 239 W/m 2,6 km/h (1 Bft)
20.05.2014 09:44 19,7 C 18,9 C 74 % 1010,9 hPa 0,0 l/m 0 min 0 min 0,5 UV-I 236 W/m 2,6 km/h (1 Bft)
20.05.2014 09:46 19,7 C 18,9 C 74 % 1010,9 hPa 0,0 l/m 0 min 0 min 0,5 UV-I 234 W/m 2,6 km/h (1 Bft)
20.05.2014 09:48 19,8 C 19,4 C 75 % 1010,9 hPa 0,0 l/m 0 min 0 min 0,5 UV-I 229 W/m 2,6 km/h (1 Bft)
20.05.2014 09:50 19,7 C 18,9 C 75 % 1010,9 hPa 0,0 l/m 0 min 0 min 0,5 UV-I 216 W/m 2,6 km/h (1 Bft)
20.05.2014 09:52 19,7 C 18,9 C 75 % 1010,9 hPa 0,0 l/m 0 min 0 min 0,6 UV-I 213 W/m 0,0 km/h (0 Bft)
20.05.2014 09:54 19,7 C 18,9 C 75 % 1011,0 hPa 0,0 l/m 0 min 0 min 0,6 UV-I 209 W/m 10,3 km/h (2 Bft)
20.05.2014 09:56 19,7 C 18,9 C 76 % 1010,9 hPa 0,0 l/m 0 min 0 min 0,6 UV-I 200 W/m 2,6 km/h (1 Bft)
20.05.2014 09:58 19,7 C 18,9 C 75 % 1010,9 hPa 0,0 l/m 0 min 0 min 0,6 UV-I 188 W/m 5,1 km/h (1 Bft)
20.05.2014 10:00 19,7 C 18,9 C 75 % 1010,9 hPa 0,0 l/m 0 min 0 min 0,7 UV-I 183 W/m 7,7 km/h (2 Bft)
20.05.2014 10:02 19,6 C 18,3 C 75 % 1011,0 hPa 0,0 l/m 0 min 0 min 1,2 UV-I 301 W/m 2,6 km/h (1 Bft)
20.05.2014 10:06 20,0 C 18,9 C 76 % 1010,9 hPa 0,0 l/m 2 min 0 min 1,7 UV-I 642 W/m 12,9 km/h (3 Bft)
20.05.2014 10:08 20,3 C 18,9 C 75 % 1010,9 hPa 0,0 l/m 2 min 0 min 1,8 UV-I 668 W/m 10,3 km/h (2 Bft)
20.05.2014 10:10 20,7 C 19,4 C 73 % 1010,9 hPa 0,0 l/m 2 min 0 min 1,6 UV-I 737 W/m 10,3 km/h (2 Bft)
20.05.2014 10:12 20,9 C 19,4 C 73 % 1011,0 hPa 0,0 l/m 2 min 0 min 2,0 UV-I 687 W/m 2,6 km/h (1 Bft)
20.05.2014 10:14 21,2 C 20,0 C 73 % 1010,9 hPa 0,0 l/m 2 min 0 min 1,6 UV-I 663 W/m 7,7 km/h (2 Bft)
20.05.2014 10:16 21,4 C 20,0 C 71 % 1010,9 hPa 0,0 l/m 2 min 0 min 1,6 UV-I 663 W/m 10,3 km/h (2 Bft)
20.05.2014 10:18 21,5 C 20,0 C 71 % 1011,0 hPa 0,0 l/m 2 min 0 min 1,6 UV-I 376 W/m 0,0 km/h (0 Bft)
20.05.2014 10:20 21,7 C 20,6 C 70 % 1011,0 hPa 0,0 l/m 2 min 0 min 1,4 UV-I 789 W/m 10,3 km/h (2 Bft)
20.05.2014 10:22 21,7 C 20,6 C 70 % 1011,0 hPa 0,0 l/m 2 min 0 min 1,6 UV-I 385 W/m 10,3 km/h (2 Bft)
20.05.2014 10:24 21,8 C 21,1 C 71 % 1011,0 hPa 0,0 l/m 2 min 0 min 1,4 UV-I 410 W/m 12,9 km/h (3 Bft)
20.05.2014 10:26 21,8 C 21,1 C 71 % 1011,1 hPa 0,0 l/m 2 min 0 min 1,3 UV-I 371 W/m 10,3 km/h (2 Bft)
20.05.2014 10:28 21,7 C 21,1 C 70 % 1011,1 hPa 0,0 l/m 0 min 0 min 1,2 UV-I 346 W/m 12,9 km/h (3 Bft)
20.05.2014 10:30 21,7 C 21,1 C 70 % 1011,0 hPa 0,0 l/m 0 min 0 min 1,2 UV-I 341 W/m 10,3 km/h (2 Bft)
20.05.2014 10:32 21,6 C 21,1 C 71 % 1011,0 hPa 0,0 l/m 2 min 0 min 1,4 UV-I 373 W/m 12,9 km/h (3 Bft)
20.05.2014 10:34 21,5 C 21,1 C 72 % 1011,1 hPa 0,0 l/m 2 min 0 min 1,8 UV-I 480 W/m 10,3 km/h (2 Bft)
20.05.2014 10:36 21,6 C 21,7 C 72 % 1011,0 hPa 0,0 l/m 0 min 0 min 1,3 UV-I 334 W/m 10,3 km/h (2 Bft)
20.05.2014 10:38 21,7 C 21,1 C 71 % 1011,0 hPa 0,0 l/m 0 min 0 min 1,2 UV-I 318 W/m 7,7 km/h (2 Bft)
20.05.2014 10:40 21,7 C 21,7 C 71 % 1011,0 hPa 0,0 l/m 0 min 0 min 1,2 UV-I 313 W/m 2,6 km/h (1 Bft)
20.05.2014 10:42 21,6 C 21,1 C 71 % 1011,1 hPa 0,0 l/m 0 min 0 min 1,2 UV-I 318 W/m 18,0 km/h (3 Bft)
20.05.2014 10:44 21,5 C 21,1 C 71 % 1011,1 hPa 0,0 l/m 0 min 0 min 1,3 UV-I 336 W/m 10,3 km/h (2 Bft)
20.05.2014 10:46 21,4 C 21,1 C 71 % 1011,1 hPa 0,0 l/m 0 min 0 min 1,4 UV-I 369 W/m 15,4 km/h (3 Bft)
20.05.2014 10:48 21,4 C 21,7 C 72 % 1011,1 hPa 0,0 l/m 2 min 0 min 1,4 UV-I 394 W/m 10,3 km/h (2 Bft)
20.05.2014 10:50 21,4 C 21,7 C 72 % 1011,1 hPa 0,0 l/m 2 min 0 min 1,4 UV-I 390 W/m 10,3 km/h (2 Bft)
20.05.2014 10:52 21,5 C 21,7 C 71 % 1011,1 hPa 0,0 l/m 0 min 0 min 1,3 UV-I 364 W/m 7,7 km/h (2 Bft)
20.05.2014 10:54 21,5 C 21,7 C 72 % 1011,1 hPa 0,0 l/m 0 min 0 min 1,3 UV-I 297 W/m 10,3 km/h (2 Bft)
20.05.2014 10:56 21,4 C 21,1 C 72 % 1011,0 hPa 0,0 l/m 0 min 0 min 1,0 UV-I 288 W/m 2,6 km/h (1 Bft)
20.05.2014 10:58 21,3 C 21,1 C 71 % 1011,1 hPa 0,0 l/m 0 min 0 min 1,0 UV-I 272 W/m 7,7 km/h (2 Bft)
20.05.2014 11:00 21,3 C 21,1 C 72 % 1011,1 hPa 0,0 l/m 0 min 0 min 0,9 UV-I 257 W/m 7,7 km/h (2 Bft)
20.05.2014 11:02 21,3 C 21,1 C 72 % 1011,1 hPa 0,0 l/m 0 min 0 min 0,9 UV-I 262 W/m 10,3 km/h (2 Bft)
20.05.2014 11:06 21,3 C 21,1 C 72 % 1011,2 hPa 0,0 l/m 0 min 0 min 1,3 UV-I 329 W/m 5,1 km/h (1 Bft)
20.05.2014 11:08 21,3 C 21,1 C 73 % 1011,2 hPa 0,0 l/m 0 min 0 min 1,4 UV-I 352 W/m 12,9 km/h (3 Bft)
20.05.2014 11:10 21,4 C 21,7 C 73 % 1011,3 hPa 0,0 l/m 0 min 0 min 1,5 UV-I 364 W/m 5,1 km/h (1 Bft)
20.05.2014 11:12 21,6 C 21,7 C 72 % 1011,2 hPa 0,0 l/m 0 min 0 min 1,5 UV-I 378 W/m 7,7 km/h (2 Bft)
20.05.2014 11:14 21,7 C 21,7 C 73 % 1011,2 hPa 0,0 l/m 0 min 0 min 1,6 UV-I 381 W/m 0,0 km/h (0 Bft)
20.05.2014 11:16 21,8 C 22,2 C 71 % 1011,2 hPa 0,0 l/m 0 min 0 min 1,7 UV-I 390 W/m 2,6 km/h (1 Bft)
20.05.2014 11:18 21,9 C 22,2 C 72 % 1011,2 hPa 0,0 l/m 2 min 0 min 2,1 UV-I 483 W/m 0,0 km/h (0 Bft)
20.05.2014 11:20 22,1 C 22,8 C 70 % 1011,2 hPa 0,0 l/m 2 min 0 min 2,5 UV-I 596 W/m 12,9 km/h (3 Bft)
20.05.2014 11:22 22,3 C 22,8 C 68 % 1011,1 hPa 0,0 l/m 2 min 0 min 2,4 UV-I 596 W/m 18,0 km/h (3 Bft)
20.05.2014 11:24 22,4 C 22,8 C 70 % 1011,1 hPa 0,0 l/m 2 min 0 min 3,3 UV-I 724 W/m 15,4 km/h (3 Bft)
20.05.2014 11:26 22,5 C 23,3 C 68 % 1011,1 hPa 0,0 l/m 2 min 0 min 3,0 UV-I 724 W/m 10,3 km/h (2 Bft)
20.05.2014 11:28 22,7 C 23,3 C 69 % 1011,0 hPa 0,0 l/m 2 min 0 min 3,0 UV-I 721 W/m 7,7 km/h (2 Bft)
20.05.2014 11:30 22,9 C 25,0 C 69 % 1011,0 hPa 0,0 l/m 2 min 0 min 3,1 UV-I 856 W/m 10,3 km/h (2 Bft)
20.05.2014 11:32 23,3 C 25,6 C 69 % 1011,0 hPa 0,0 l/m 2 min 0 min 3,1 UV-I 738 W/m 7,7 km/h (2 Bft)
20.05.2014 11:34 23,4 C 26,1 C 66 % 1011,0 hPa 0,0 l/m 2 min 0 min 3,0 UV-I 675 W/m 5,1 km/h (1 Bft)
20.05.2014 11:36 23,3 C 26,1 C 66 % 1011,0 hPa 0,0 l/m 2 min 0 min 2,2 UV-I 605 W/m 10,3 km/h (2 Bft)
20.05.2014 11:38 23,2 C 25,6 C 67 % 1011,0 hPa 0,0 l/m 2 min 0 min 2,7 UV-I 603 W/m 10,3 km/h (2 Bft)
20.05.2014 11:40 23,3 C 26,1 C 67 % 1011,0 hPa 0,0 l/m 2 min 0 min 2,7 UV-I 624 W/m 10,3 km/h (2 Bft)
20.05.2014 11:42 23,3 C 25,6 C 66 % 1011,0 hPa 0,0 l/m 2 min 0 min 2,4 UV-I 506 W/m 12,9 km/h (3 Bft)
20.05.2014 11:44 23,3 C 25,0 C 66 % 1011,1 hPa 0,0 l/m 2 min 0 min 2,2 UV-I 441 W/m 10,3 km/h (2 Bft)
20.05.2014 11:46 23,3 C 24,4 C 65 % 1011,0 hPa 0,0 l/m 0 min 0 min 2,1 UV-I 404 W/m 0,0 km/h (0 Bft)
20.05.2014 11:48 23,3 C 24,4 C 66 % 1011,0 hPa 0,0 l/m 2 min 0 min 2,4 UV-I 504 W/m 2,6 km/h (1 Bft)
20.05.2014 11:50 23,3 C 24,4 C 65 % 1011,0 hPa 0,0 l/m 2 min 0 min 2,5 UV-I 490 W/m 0,0 km/h (0 Bft)
20.05.2014 11:52 23,4 C 24,4 C 66 % 1011,0 hPa 0,0 l/m 2 min 0 min 2,5 UV-I 512 W/m 0,0 km/h (0 Bft)
20.05.2014 11:54 23,6 C 25,6 C 65 % 1011,1 hPa 0,0 l/m 2 min 0 min 3,1 UV-I 849 W/m 0,0 km/h (0 Bft)
20.05.2014 11:56 23,9 C 26,7 C 63 % 1011,1 hPa 0,0 l/m 2 min 0 min 3,7 UV-I 856 W/m 12,9 km/h (3 Bft)
20.05.2014 11:58 24,2 C 27,2 C 63 % 1011,1 hPa 0,0 l/m 2 min 0 min 3,9 UV-I 863 W/m 10,3 km/h (2 Bft)
20.05.2014 12:00 24,5 C 27,8 C 60 % 1011,1 hPa 0,0 l/m 2 min 0 min 4,0 UV-I 849 W/m 10,3 km/h (2 Bft)
20.05.2014 12:02 24,8 C 28,3 C 62 % 1011,0 hPa 0,0 l/m 2 min 0 min 4,0 UV-I 838 W/m 10,3 km/h (2 Bft)
20.05.2014 12:06 24,9 C 28,3 C 61 % 1011,0 hPa 0,0 l/m 2 min 0 min 4,0 UV-I 826 W/m 10,3 km/h (2 Bft)
20.05.2014 12:08 25,1 C 28,3 C 60 % 1011,0 hPa 0,0 l/m 2 min 0 min 4,0 UV-I 828 W/m 15,4 km/h (3 Bft)
20.05.2014 12:10 25,1 C 28,3 C 60 % 1010,9 hPa 0,0 l/m 2 min 0 min 4,0 UV-I 816 W/m 10,3 km/h (2 Bft)
20.05.2014 12:12 25,1 C 29,4 C 60 % 1010,9 hPa 0,0 l/m 2 min 0 min 4,0 UV-I 831 W/m 0,0 km/h (0 Bft)
20.05.2014 12:14 25,2 C 30,0 C 58 % 1010,8 hPa 0,0 l/m 2 min 0 min 4,1 UV-I 854 W/m 2,6 km/h (1 Bft)
20.05.2014 12:16 25,2 C 29,4 C 53 % 1010,8 hPa 0,0 l/m 2 min 0 min 3,9 UV-I 870 W/m 10,3 km/h (2 Bft)
20.05.2014 12:18 25,4 C 29,4 C 54 % 1010,8 hPa 0,0 l/m 2 min 0 min 4,2 UV-I 935 W/m 5,1 km/h (1 Bft)
20.05.2014 12:20 25,5 C 29,4 C 55 % 1010,8 hPa 0,0 l/m 2 min 0 min 3,7 UV-I 937 W/m 10,3 km/h (2 Bft)
20.05.2014 12:22 25,6 C 28,3 C 51 % 1010,8 hPa 0,0 l/m 2 min 0 min 3,3 UV-I 452 W/m 10,3 km/h (2 Bft)
20.05.2014 12:24 25,7 C 28,9 C 52 % 1010,7 hPa 0,0 l/m 2 min 0 min 3,7 UV-I 919 W/m 2,6 km/h (1 Bft)
20.05.2014 12:26 25,9 C 28,9 C 50 % 1010,7 hPa 0,0 l/m 2 min 0 min 3,4 UV-I 751 W/m 2,6 km/h (1 Bft)
20.05.2014 12:28 25,9 C 28,3 C 51 % 1010,7 hPa 0,0 l/m 0 min 0 min 2,9 UV-I 424 W/m 5,1 km/h (1 Bft)
20.05.2014 12:30 25,7 C 28,3 C 47 % 1010,6 hPa 0,0 l/m 0 min 0 min 4,4 UV-I 424 W/m 2,6 km/h (1 Bft)
20.05.2014 12:32 26,0 C 28,3 C 53 % 1010,7 hPa 0,0 l/m 2 min 0 min 3,9 UV-I 717 W/m 15,4 km/h (3 Bft)
20.05.2014 12:34 26,1 C 28,3 C 50 % 1010,7 hPa 0,0 l/m 2 min 0 min 4,1 UV-I 821 W/m 15,4 km/h (3 Bft)
20.05.2014 12:36 26,0 C 28,3 C 52 % 1010,7 hPa 0,0 l/m 2 min 0 min 3,5 UV-I 731 W/m 18,0 km/h (3 Bft)
20.05.2014 12:38 25,9 C 27,8 C 54 % 1010,8 hPa 0,0 l/m 2 min 0 min 3,7 UV-I 731 W/m 15,4 km/h (3 Bft)
20.05.2014 12:40 25,7 C 27,2 C 53 % 1010,7 hPa 0,0 l/m 2 min 0 min 4,4 UV-I 838 W/m 12,9 km/h (3 Bft)
20.05.2014 12:42 25,6 C 27,8 C 53 % 1010,7 hPa 0,0 l/m 2 min 0 min 4,4 UV-I 844 W/m 10,3 km/h (2 Bft)
20.05.2014 12:44 25,7 C 27,8 C 52 % 1010,7 hPa 0,0 l/m 2 min 0 min 4,2 UV-I 810 W/m 12,9 km/h (3 Bft)
20.05.2014 12:46 25,7 C 27,2 C 56 % 1010,6 hPa 0,0 l/m 2 min 0 min 4,2 UV-I 821 W/m 0,0 km/h (0 Bft)
20.05.2014 12:48 25,9 C 27,2 C 56 % 1010,6 hPa 0,0 l/m 2 min 0 min 4,1 UV-I 821 W/m 7,7 km/h (2 Bft)
20.05.2014 12:50 26,2 C 27,2 C 55 % 1010,5 hPa 0,0 l/m 2 min 0 min 3,9 UV-I 824 W/m 10,3 km/h (2 Bft)
20.05.2014 12:52 26,5 C 27,2 C 56 % 1010,5 hPa 0,0 l/m 2 min 0 min 3,4 UV-I 826 W/m 15,4 km/h (3 Bft)
20.05.2014 12:54 26,7 C 27,2 C 54 % 1010,5 hPa 0,0 l/m 2 min 0 min 3,1 UV-I 830 W/m 15,4 km/h (3 Bft)
20.05.2014 12:56 26,6 C 26,7 C 54 % 1010,5 hPa 0,0 l/m 2 min 0 min 2,8 UV-I 838 W/m 18,0 km/h (3 Bft)
20.05.2014 12:58 26,4 C 26,7 C 54 % 1010,5 hPa 0,0 l/m 2 min 0 min 2,4 UV-I 830 W/m 15,4 km/h (3 Bft)
20.05.2014 13:00 26,4 C 26,7 C 52 % 1010,5 hPa 0,0 l/m 2 min 0 min 2,3 UV-I 844 W/m 20,6 km/h (4 Bft)
20.05.2014 13:02 26,5 C 27,2 C 53 % 1010,5 hPa 0,0 l/m 2 min 0 min 2,2 UV-I 842 W/m 7,7 km/h (2 Bft)
20.05.2014 13:06 26,3 C 27,2 C 51 % 1010,6 hPa 0,0 l/m 2 min 0 min 2,2 UV-I 789 W/m 25,7 km/h (4 Bft)
20.05.2014 13:08 26,1 C 27,2 C 53 % 1010,5 hPa 0,0 l/m 2 min 0 min 2,2 UV-I 768 W/m 12,9 km/h (3 Bft)
20.05.2014 13:10 26,2 C 26,7 C 53 % 1010,5 hPa 0,0 l/m 2 min 0 min 2,2 UV-I 759 W/m 15,4 km/h (3 Bft)
20.05.2014 13:12 26,4 C 26,7 C 55 % 1010,6 hPa 0,0 l/m 2 min 0 min 2,1 UV-I 763 W/m 12,9 km/h (3 Bft)
20.05.2014 13:14 26,3 C 26,7 C 53 % 1010,5 hPa 0,0 l/m 2 min 0 min 2,1 UV-I 765 W/m 15,4 km/h (3 Bft)
20.05.2014 13:16 26,3 C 26,1 C 55 % 1010,5 hPa 0,0 l/m 2 min 0 min 2,1 UV-I 807 W/m 5,1 km/h (1 Bft)
20.05.2014 13:18 26,4 C 26,1 C 54 % 1010,5 hPa 0,0 l/m 2 min 0 min 2,2 UV-I 789 W/m 15,4 km/h (3 Bft)
20.05.2014 13:20 26,4 C 26,1 C 54 % 1010,5 hPa 0,0 l/m 2 min 0 min 2,2 UV-I 809 W/m 18,0 km/h (3 Bft)
20.05.2014 13:22 26,5 C 26,1 C 55 % 1010,5 hPa 0,0 l/m 2 min 0 min 2,2 UV-I 807 W/m 5,1 km/h (1 Bft)
20.05.2014 13:24 26,7 C 26,1 C 54 % 1010,5 hPa 0,0 l/m 2 min 0 min 2,2 UV-I 819 W/m 18,0 km/h (3 Bft)
20.05.2014 13:26 26,8 C 26,1 C 51 % 1010,5 hPa 0,0 l/m 2 min 0 min 2,1 UV-I 793 W/m 25,7 km/h (4 Bft)
20.05.2014 13:28 26,7 C 26,1 C 52 % 1010,5 hPa 0,0 l/m 2 min 0 min 2,2 UV-I 793 W/m 20,6 km/h (4 Bft)
20.05.2014 13:30 26,6 C 25,6 C 52 % 1010,5 hPa 0,0 l/m 2 min 0 min 2,2 UV-I 816 W/m 15,4 km/h (3 Bft)
20.05.2014 13:32 26,6 C 25,6 C 52 % 1010,5 hPa 0,0 l/m 2 min 0 min 2,2 UV-I 810 W/m 12,9 km/h (3 Bft)
20.05.2014 13:34 26,6 C 25,6 C 54 % 1010,5 hPa 0,0 l/m 2 min 0 min 2,2 UV-I 795 W/m 12,9 km/h (3 Bft)
20.05.2014 13:36 26,6 C 25,6 C 53 % 1010,5 hPa 0,0 l/m 2 min 0 min 2,3 UV-I 810 W/m 12,9 km/h (3 Bft)
20.05.2014 13:38 26,6 C 25,6 C 52 % 1010,5 hPa 0,0 l/m 2 min 0 min 2,4 UV-I 780 W/m 10,3 km/h (2 Bft)
20.05.2014 13:40 26,7 C 26,1 C 53 % 1010,5 hPa 0,0 l/m 2 min 0 min 2,8 UV-I 796 W/m 15,4 km/h (3 Bft)
20.05.2014 13:42 26,8 C 26,1 C 54 % 1010,5 hPa 0,0 l/m 2 min 0 min 3,1 UV-I 819 W/m 18,0 km/h (3 Bft)
20.05.2014 13:44 27,0 C 26,1 C 55 % 1010,4 hPa 0,0 l/m 2 min 0 min 3,4 UV-I 784 W/m 12,9 km/h (3 Bft)
20.05.2014 13:46 27,1 C 26,1 C 52 % 1010,5 hPa 0,0 l/m 2 min 0 min 3,8 UV-I 782 W/m 18,0 km/h (3 Bft)
20.05.2014 13:48 26,8 C 26,1 C 52 % 1010,4 hPa 0,0 l/m 2 min 0 min 4,0 UV-I 800 W/m 20,6 km/h (4 Bft)
20.05.2014 13:50 26,8 C 26,1 C 52 % 1010,5 hPa 0,0 l/m 2 min 0 min 4,3 UV-I 800 W/m 18,0 km/h (3 Bft)
20.05.2014 13:52 26,8 C 26,7 C 53 % 1010,5 hPa 0,0 l/m 2 min 0 min 4,3 UV-I 789 W/m 12,9 km/h (3 Bft)
20.05.2014 13:54 27,0 C 27,8 C 54 % 1010,4 hPa 0,0 l/m 2 min 0 min 4,3 UV-I 788 W/m 10,3 km/h (2 Bft)
20.05.2014 13:56 27,1 C 28,9 C 52 % 1010,4 hPa 0,0 l/m 2 min 0 min 4,3 UV-I 784 W/m 20,6 km/h (4 Bft)
20.05.2014 13:58 27,1 C 28,9 C 52 % 1010,4 hPa 0,0 l/m 2 min 0 min 4,3 UV-I 789 W/m 18,0 km/h (3 Bft)
20.05.2014 14:00 27,1 C 28,9 C 51 % 1010,4 hPa 0,0 l/m 2 min 0 min 4,2 UV-I 766 W/m 18,0 km/h (3 Bft)
20.05.2014 14:02 27,1 C 28,9 C 52 % 1010,5 hPa 0,0 l/m 2 min 0 min 4,3 UV-I 788 W/m 12,9 km/h (3 Bft)
20.05.2014 14:06 27,4 C 27,8 C 54 % 1010,4 hPa 0,0 l/m 2 min 0 min 4,2 UV-I 772 W/m 20,6 km/h (4 Bft)
20.05.2014 14:08 27,4 C 27,2 C 52 % 1010,5 hPa 0,0 l/m 2 min 0 min 4,4 UV-I 807 W/m 18,0 km/h (3 Bft)
20.05.2014 14:10 27,6 C 26,7 C 51 % 1010,5 hPa 0,0 l/m 2 min 0 min 4,3 UV-I 793 W/m 18,0 km/h (3 Bft)
20.05.2014 14:12 27,6 C 27,2 C 52 % 1010,5 hPa 0,0 l/m 2 min 0 min 4,3 UV-I 772 W/m 20,6 km/h (4 Bft)
20.05.2014 14:14 27,6 C 27,2 C 49 % 1010,5 hPa 0,0 l/m 2 min 0 min 4,4 UV-I 789 W/m 15,4 km/h (3 Bft)
20.05.2014 14:16 27,4 C 26,7 C 50 % 1010,4 hPa 0,0 l/m 2 min 0 min 4,4 UV-I 807 W/m 25,7 km/h (4 Bft)
20.05.2014 14:18 27,5 C 27,2 C 51 % 1010,4 hPa 0,0 l/m 2 min 0 min 4,4 UV-I 824 W/m 18,0 km/h (3 Bft)
20.05.2014 14:20 27,7 C 27,2 C 50 % 1010,4 hPa 0,0 l/m 2 min 0 min 4,5 UV-I 821 W/m 25,7 km/h (4 Bft)
20.05.2014 14:22 27,7 C 27,2 C 48 % 1010,5 hPa 0,0 l/m 2 min 0 min 4,4 UV-I 809 W/m 12,9 km/h (3 Bft)
20.05.2014 14:24 27,7 C 27,2 C 50 % 1010,5 hPa 0,0 l/m 2 min 0 min 4,4 UV-I 796 W/m 15,4 km/h (3 Bft)
20.05.2014 14:26 27,7 C 27,2 C 48 % 1010,5 hPa 0,0 l/m 2 min 0 min 4,3 UV-I 795 W/m 23,2 km/h (4 Bft)
20.05.2014 14:28 27,7 C 27,2 C 50 % 1010,5 hPa 0,0 l/m 2 min 0 min 4,3 UV-I 798 W/m 15,4 km/h (3 Bft)
20.05.2014 14:30 27,8 C 27,2 C 50 % 1010,5 hPa 0,0 l/m 2 min 0 min 4,3 UV-I 803 W/m 23,2 km/h (4 Bft)
20.05.2014 14:32 27,9 C 27,2 C 51 % 1010,5 hPa 0,0 l/m 2 min 0 min 4,3 UV-I 788 W/m 12,9 km/h (3 Bft)
20.05.2014 14:34 28,1 C 27,2 C 50 % 1010,5 hPa 0,0 l/m 2 min 0 min 4,2 UV-I 789 W/m 10,3 km/h (2 Bft)
20.05.2014 14:36 28,2 C 27,2 C 50 % 1010,4 hPa 0,0 l/m 2 min 0 min 4,2 UV-I 773 W/m 12,9 km/h (3 Bft)
20.05.2014 14:38 28,0 C 27,2 C 48 % 1010,3 hPa 0,0 l/m 2 min 0 min 4,2 UV-I 780 W/m 12,9 km/h (3 Bft)
20.05.2014 14:40 27,8 C 27,2 C 47 % 1010,4 hPa 0,0 l/m 2 min 0 min 4,2 UV-I 795 W/m 25,7 km/h (4 Bft)
20.05.2014 14:42 27,7 C 26,7 C 48 % 1010,3 hPa 0,0 l/m 2 min 0 min 4,1 UV-I 729 W/m 23,2 km/h (4 Bft)
20.05.2014 14:44 27,5 C 26,7 C 49 % 1010,3 hPa 0,0 l/m 2 min 0 min 4,0 UV-I 751 W/m 18,0 km/h (3 Bft)
20.05.2014 14:46 27,6 C 26,7 C 52 % 1010,3 hPa 0,0 l/m 2 min 0 min 4,0 UV-I 742 W/m 12,9 km/h (3 Bft)
20.05.2014 14:48 27,7 C 27,2 C 47 % 1010,3 hPa 0,0 l/m 2 min 0 min 4,0 UV-I 721 W/m 20,6 km/h (4 Bft)
20.05.2014 14:50 27,7 C 26,7 C 48 % 1010,3 hPa 0,0 l/m 2 min 0 min 3,6 UV-I 654 W/m 23,2 km/h (4 Bft)
20.05.2014 14:52 27,6 C 26,7 C 49 % 1010,2 hPa 0,0 l/m 2 min 0 min 3,8 UV-I 691 W/m 20,6 km/h (4 Bft)
20.05.2014 14:54 27,6 C 26,7 C 47 % 1010,2 hPa 0,0 l/m 2 min 0 min 3,7 UV-I 654 W/m 12,9 km/h (3 Bft)
20.05.2014 14:56 27,8 C 27,2 C 49 % 1010,2 hPa 0,0 l/m 2 min 0 min 3,7 UV-I 731 W/m 18,0 km/h (3 Bft)
20.05.2014 14:58 27,8 C 27,2 C 48 % 1010,1 hPa 0,0 l/m 2 min 0 min 3,3 UV-I 592 W/m 18,0 km/h (3 Bft)
20.05.2014 15:00 27,8 C 27,2 C 48 % 1010,1 hPa 0,0 l/m 2 min 0 min 3,2 UV-I 599 W/m 15,4 km/h (3 Bft)
20.05.2014 15:02 27,8 C 27,2 C 48 % 1010,2 hPa 0,0 l/m 2 min 0 min 3,3 UV-I 613 W/m 12,9 km/h (3 Bft)
20.05.2014 15:06 27,8 C 27,2 C 48 % 1010,2 hPa 0,0 l/m 2 min 0 min 3,5 UV-I 701 W/m 18,0 km/h (3 Bft)
20.05.2014 15:08 27,8 C 27,2 C 47 % 1010,1 hPa 0,0 l/m 2 min 0 min 3,6 UV-I 686 W/m 30,9 km/h (5 Bft)
20.05.2014 15:10 27,8 C 27,2 C 48 % 1010,2 hPa 0,0 l/m 2 min 0 min 3,5 UV-I 671 W/m 25,7 km/h (4 Bft)
20.05.2014 15:12 27,8 C 27,2 C 48 % 1010,1 hPa 0,0 l/m 2 min 0 min 3,6 UV-I 705 W/m 20,6 km/h (4 Bft)
20.05.2014 15:14 27,9 C 27,2 C 49 % 1010,1 hPa 0,0 l/m 2 min 0 min 3,4 UV-I 649 W/m 18,0 km/h (3 Bft)
20.05.2014 15:16 28,0 C 27,2 C 47 % 1010,1 hPa 0,0 l/m 2 min 0 min 3,3 UV-I 624 W/m 12,9 km/h (3 Bft)
20.05.2014 15:18 27,9 C 27,2 C 46 % 1010,2 hPa 0,0 l/m 2 min 0 min 3,3 UV-I 624 W/m 20,6 km/h (4 Bft)
20.05.2014 15:20 27,8 C 27,2 C 47 % 1010,1 hPa 0,0 l/m 2 min 0 min 3,4 UV-I 671 W/m 12,9 km/h (3 Bft)
20.05.2014 15:22 27,9 C 27,2 C 47 % 1010,1 hPa 0,0 l/m 2 min 0 min 3,5 UV-I 693 W/m 18,0 km/h (3 Bft)
20.05.2014 15:24 27,8 C 27,2 C 48 % 1010,1 hPa 0,0 l/m 2 min 0 min 3,4 UV-I 649 W/m 20,6 km/h (4 Bft)
20.05.2014 15:26 27,8 C 27,2 C 47 % 1010,1 hPa 0,0 l/m 2 min 0 min 3,6 UV-I 698 W/m 25,7 km/h (4 Bft)
20.05.2014 15:28 27,8 C 27,2 C 47 % 1010,1 hPa 0,0 l/m 2 min 0 min 3,6 UV-I 721 W/m 18,0 km/h (3 Bft)
20.05.2014 15:30 27,9 C 27,8 C 48 % 1010,1 hPa 0,0 l/m 2 min 0 min 3,7 UV-I 742 W/m 15,4 km/h (3 Bft)
20.05.2014 15:32 28,1 C 27,8 C 48 % 1010,1 hPa 0,0 l/m 2 min 0 min 3,7 UV-I 751 W/m 30,9 km/h (5 Bft)
20.05.2014 15:34 28,1 C 28,3 C 50 % 1010,0 hPa 0,0 l/m 2 min 0 min 3,5 UV-I 694 W/m 12,9 km/h (3 Bft)
20.05.2014 15:36 28,2 C 28,9 C 49 % 1010,0 hPa 0,0 l/m 2 min 0 min 3,5 UV-I 694 W/m 7,7 km/h (2 Bft)
20.05.2014 15:38 28,3 C 30,0 C 46 % 1010,0 hPa 0,0 l/m 2 min 0 min 3,5 UV-I 707 W/m 15,4 km/h (3 Bft)
20.05.2014 15:40 28,3 C 31,1 C 48 % 1010,0 hPa 0,0 l/m 2 min 0 min 3,6 UV-I 763 W/m 15,4 km/h (3 Bft)
20.05.2014 15:42 28,4 C 31,7 C 46 % 1010,0 hPa 0,0 l/m 2 min 0 min 3,6 UV-I 758 W/m 18,0 km/h (3 Bft)
20.05.2014 15:44 28,4 C 32,2 C 47 % 1010,0 hPa 0,0 l/m 2 min 0 min 3,5 UV-I 722 W/m 10,3 km/h (2 Bft)
20.05.2014 15:46 28,4 C 32,2 C 47 % 1010,0 hPa 0,0 l/m 2 min 0 min 3,4 UV-I 714 W/m 12,9 km/h (3 Bft)
20.05.2014 15:48 28,5 C 32,8 C 44 % 1010,0 hPa 0,0 l/m 2 min 0 min 3,3 UV-I 715 W/m 28,3 km/h (4 Bft)
20.05.2014 15:50 28,4 C 31,1 C 47 % 1009,9 hPa 0,0 l/m 2 min 0 min 1,8 UV-I 715 W/m 7,7 km/h (2 Bft)
20.05.2014 15:52 28,3 C 28,9 C 46 % 1009,9 hPa 0,0 l/m 0 min 0 min 1,8 UV-I 160 W/m 7,7 km/h (2 Bft)
20.05.2014 15:54 28,0 C 29,4 C 46 % 1010,0 hPa 0,0 l/m 0 min 0 min 3,3 UV-I 160 W/m 30,9 km/h (5 Bft)
20.05.2014 15:56 28,0 C 31,1 C 46 % 1009,9 hPa 0,0 l/m 2 min 0 min 3,3 UV-I 759 W/m 12,9 km/h (3 Bft)
20.05.2014 15:58 28,1 C 31,1 C 45 % 1010,0 hPa 0,0 l/m 2 min 0 min 3,2 UV-I 759 W/m 23,2 km/h (4 Bft)
20.05.2014 16:00 28,1 C 31,7 C 46 % 1009,9 hPa 0,0 l/m 2 min 0 min 3,3 UV-I 761 W/m 18,0 km/h (3 Bft)
20.05.2014 16:02 28,2 C 32,2 C 46 % 1009,9 hPa 0,0 l/m 2 min 0 min 3,3 UV-I 758 W/m 20,6 km/h (4 Bft)
20.05.2014 16:06 28,4 C 31,1 C 45 % 1009,9 hPa 0,0 l/m 2 min 0 min 3,0 UV-I 707 W/m 23,2 km/h (4 Bft)
20.05.2014 16:08 28,3 C 29,4 C 44 % 1009,9 hPa 0,0 l/m 2 min 0 min 1,7 UV-I 707 W/m 28,3 km/h (4 Bft)
20.05.2014 16:10 28,2 C 29,4 C 46 % 1009,8 hPa 0,0 l/m 2 min 0 min 2,9 UV-I 724 W/m 18,0 km/h (3 Bft)
20.05.2014 16:12 28,2 C 28,3 C 45 % 1009,9 hPa 0,0 l/m 0 min 0 min 1,7 UV-I 193 W/m 25,7 km/h (4 Bft)
20.05.2014 16:14 28,1 C 27,8 C 44 % 1009,9 hPa 0,0 l/m 0 min 0 min 1,9 UV-I 193 W/m 25,7 km/h (4 Bft)
20.05.2014 16:16 27,9 C 27,2 C 44 % 1009,9 hPa 0,0 l/m 0 min 0 min 1,4 UV-I 153 W/m 23,2 km/h (4 Bft)
20.05.2014 16:18 27,7 C 26,7 C 46 % 1009,9 hPa 0,0 l/m 0 min 0 min 1,2 UV-I 156 W/m 18,0 km/h (3 Bft)
20.05.2014 16:20 27,4 C 26,1 C 45 % 1009,9 hPa 0,0 l/m 0 min 0 min 1,1 UV-I 151 W/m 28,3 km/h (4 Bft)
20.05.2014 16:22 27,2 C 25,6 C 46 % 1009,9 hPa 0,0 l/m 0 min 0 min 1,0 UV-I 127 W/m 20,6 km/h (4 Bft)
20.05.2014 16:24 26,9 C 25,6 C 46 % 1009,8 hPa 0,0 l/m 0 min 0 min 0,9 UV-I 125 W/m 23,2 km/h (4 Bft)
20.05.2014 16:26 26,8 C 25,0 C 46 % 1009,7 hPa 0,0 l/m 0 min 0 min 0,9 UV-I 137 W/m 10,3 km/h (2 Bft)
20.05.2014 16:28 26,7 C 25,0 C 47 % 1009,8 hPa 0,0 l/m 0 min 0 min 1,0 UV-I 153 W/m 12,9 km/h (3 Bft)
20.05.2014 16:30 26,6 C 25,0 C 48 % 1009,9 hPa 0,0 l/m 0 min 0 min 1,1 UV-I 167 W/m 10,3 km/h (2 Bft)
20.05.2014 16:32 26,6 C 25,0 C 47 % 1009,8 hPa 0,0 l/m 0 min 0 min 1,1 UV-I 192 W/m 23,2 km/h (4 Bft)
20.05.2014 16:34 26,6 C 25,0 C 48 % 1009,9 hPa 0,0 l/m 0 min 0 min 1,2 UV-I 232 W/m 12,9 km/h (3 Bft)
20.05.2014 16:36 26,6 C 25,6 C 46 % 1009,9 hPa 0,0 l/m 0 min 0 min 1,4 UV-I 232 W/m 18,0 km/h (3 Bft)
20.05.2014 16:38 26,8 C 25,6 C 49 % 1009,8 hPa 0,0 l/m 0 min 0 min 1,0 UV-I 214 W/m 10,3 km/h (2 Bft)
20.05.2014 16:40 26,9 C 25,6 C 48 % 1009,8 hPa 0,0 l/m 0 min 0 min 1,0 UV-I 193 W/m 12,9 km/h (3 Bft)
20.05.2014 16:42 26,9 C 25,6 C 48 % 1009,8 hPa 0,0 l/m 0 min 0 min 1,1 UV-I 241 W/m 5,1 km/h (1 Bft)
20.05.2014 16:44 27,0 C 25,6 C 49 % 1009,8 hPa 0,0 l/m 0 min 0 min 1,0 UV-I 241 W/m 7,7 km/h (2 Bft)
20.05.2014 16:46 26,9 C 25,6 C 48 % 1009,7 hPa 0,0 l/m 0 min 0 min 1,0 UV-I 239 W/m 15,4 km/h (3 Bft)
20.05.2014 16:48 26,9 C 25,6 C 49 % 1009,8 hPa 0,0 l/m 0 min 0 min 1,0 UV-I 239 W/m 18,0 km/h (3 Bft)
20.05.2014 16:50 26,9 C 25,6 C 48 % 1009,8 hPa 0,0 l/m 0 min 0 min 1,0 UV-I 229 W/m 15,4 km/h (3 Bft)
20.05.2014 16:52 26,8 C 25,6 C 48 % 1009,8 hPa 0,0 l/m 0 min 0 min 0,9 UV-I 220 W/m 10,3 km/h (2 Bft)
20.05.2014 16:54 26,8 C 25,6 C 49 % 1009,8 hPa 0,0 l/m 0 min 0 min 0,9 UV-I 211 W/m 15,4 km/h (3 Bft)
20.05.2014 16:56 26,7 C 25,6 C 49 % 1009,8 hPa 0,0 l/m 0 min 0 min 0,9 UV-I 209 W/m 7,7 km/h (2 Bft)
20.05.2014 16:58 26,7 C 25,6 C 50 % 1009,9 hPa 0,0 l/m 0 min 0 min 0,9 UV-I 214 W/m 2,6 km/h (1 Bft)
20.05.2014 17:00 26,6 C 25,6 C 50 % 1009,8 hPa 0,0 l/m 0 min 0 min 0,8 UV-I 209 W/m 18,0 km/h (3 Bft)
20.05.2014 17:02 26,6 C 25,0 C 50 % 1009,9 hPa 0,0 l/m 0 min 0 min 0,8 UV-I 200 W/m 7,7 km/h (2 Bft)
20.05.2014 17:06 26,5 C 25,0 C 51 % 1009,8 hPa 0,0 l/m 0 min 0 min 0,9 UV-I 264 W/m 12,9 km/h (3 Bft)
20.05.2014 17:08 26,6 C 25,0 C 51 % 1009,8 hPa 0,0 l/m 0 min 0 min 1,0 UV-I 264 W/m 10,3 km/h (2 Bft)
20.05.2014 17:10 26,6 C 25,6 C 51 % 1009,8 hPa 0,0 l/m 0 min 0 min 1,0 UV-I 276 W/m 12,9 km/h (3 Bft)
20.05.2014 17:12 26,6 C 25,6 C 51 % 1009,8 hPa 0,0 l/m 0 min 0 min 1,1 UV-I 292 W/m 10,3 km/h (2 Bft)
20.05.2014 17:14 26,7 C 25,6 C 51 % 1009,8 hPa 0,0 l/m 2 min 0 min 1,1 UV-I 366 W/m 10,3 km/h (2 Bft)
20.05.2014 17:16 26,8 C 25,6 C 52 % 1009,8 hPa 0,0 l/m 2 min 0 min 1,3 UV-I 415 W/m 18,0 km/h (3 Bft)
20.05.2014 17:18 26,9 C 25,6 C 52 % 1009,8 hPa 0,0 l/m 2 min 0 min 1,3 UV-I 420 W/m 7,7 km/h (2 Bft)
20.05.2014 17:20 26,9 C 25,6 C 52 % 1009,8 hPa 0,0 l/m 2 min 0 min 1,3 UV-I 403 W/m 7,7 km/h (2 Bft)
20.05.2014 17:22 27,0 C 26,1 C 51 % 1009,8 hPa 0,0 l/m 2 min 0 min 1,3 UV-I 394 W/m 12,9 km/h (3 Bft)
20.05.2014 17:24 27,1 C 26,1 C 51 % 1009,8 hPa 0,0 l/m 2 min 0 min 1,4 UV-I 455 W/m 15,4 km/h (3 Bft)
20.05.2014 17:26 27,2 C 26,1 C 50 % 1009,8 hPa 0,0 l/m 2 min 0 min 1,4 UV-I 446 W/m 15,4 km/h (3 Bft)
20.05.2014 17:28 27,3 C 26,1 C 51 % 1009,8 hPa 0,0 l/m 2 min 0 min 1,4 UV-I 438 W/m 12,9 km/h (3 Bft)
20.05.2014 17:30 27,3 C 26,1 C 49 % 1009,8 hPa 0,0 l/m 2 min 0 min 1,4 UV-I 427 W/m 15,4 km/h (3 Bft)
20.05.2014 17:32 27,3 C 26,1 C 50 % 1009,9 hPa 0,0 l/m 2 min 0 min 1,4 UV-I 454 W/m 12,9 km/h (3 Bft)
20.05.2014 17:34 27,4 C 26,1 C 50 % 1009,8 hPa 0,0 l/m 2 min 0 min 1,4 UV-I 446 W/m 12,9 km/h (3 Bft)
20.05.2014 17:36 27,4 C 26,1 C 50 % 1009,9 hPa 0,0 l/m 2 min 0 min 1,3 UV-I 397 W/m 15,4 km/h (3 Bft)
20.05.2014 17:38 27,5 C 26,1 C 50 % 1009,9 hPa 0,0 l/m 2 min 0 min 1,3 UV-I 396 W/m 15,4 km/h (3 Bft)
20.05.2014 17:40 27,4 C 26,1 C 49 % 1009,8 hPa 0,0 l/m 2 min 0 min 1,3 UV-I 408 W/m 18,0 km/h (3 Bft)
20.05.2014 17:42 27,4 C 26,1 C 49 % 1009,8 hPa 0,0 l/m 2 min 0 min 1,3 UV-I 413 W/m 18,0 km/h (3 Bft)
20.05.2014 17:44 27,4 C 26,1 C 48 % 1009,8 hPa 0,0 l/m 2 min 0 min 1,3 UV-I 432 W/m 25,7 km/h (4 Bft)
20.05.2014 17:46 27,3 C 26,1 C 48 % 1009,8 hPa 0,0 l/m 2 min 0 min 1,3 UV-I 468 W/m 23,2 km/h (4 Bft)
20.05.2014 17:48 27,4 C 26,1 C 49 % 1009,7 hPa 0,0 l/m 2 min 0 min 1,3 UV-I 446 W/m 12,9 km/h (3 Bft)
20.05.2014 17:50 27,4 C 26,1 C 49 % 1009,7 hPa 0,0 l/m 2 min 0 min 1,3 UV-I 411 W/m 15,4 km/h (3 Bft)
20.05.2014 17:52 27,5 C 26,1 C 49 % 1009,7 hPa 0,0 l/m 2 min 0 min 1,2 UV-I 297 W/m 12,9 km/h (3 Bft)
20.05.2014 17:54 27,5 C 26,1 C 48 % 1009,7 hPa 0,0 l/m 2 min 0 min 1,1 UV-I 318 W/m 12,9 km/h (3 Bft)
20.05.2014 17:56 27,5 C 26,1 C 47 % 1009,7 hPa 0,0 l/m 2 min 0 min 1,2 UV-I 432 W/m 18,0 km/h (3 Bft)
20.05.2014 17:58 27,5 C 26,1 C 45 % 1009,7 hPa 0,0 l/m 2 min 0 min 1,2 UV-I 445 W/m 28,3 km/h (4 Bft)
20.05.2014 18:00 27,5 C 26,1 C 43 % 1009,7 hPa 0,0 l/m 2 min 0 min 1,3 UV-I 485 W/m 18,0 km/h (3 Bft)
20.05.2014 18:02 27,5 C 26,1 C 42 % 1009,7 hPa 0,0 l/m 2 min 0 min 1,3 UV-I 508 W/m 25,7 km/h (4 Bft)
20.05.2014 18:06 27,6 C 26,1 C 44 % 1009,7 hPa 0,0 l/m 2 min 0 min 1,2 UV-I 427 W/m 23,2 km/h (4 Bft)
20.05.2014 18:08 27,6 C 26,1 C 43 % 1009,6 hPa 0,0 l/m 2 min 0 min 1,2 UV-I 408 W/m 18,0 km/h (3 Bft)
20.05.2014 18:10 27,6 C 26,1 C 44 % 1009,6 hPa 0,0 l/m 2 min 0 min 1,2 UV-I 371 W/m 18,0 km/h (3 Bft)
20.05.2014 18:12 27,6 C 25,6 C 43 % 1009,6 hPa 0,0 l/m 2 min 0 min 1,1 UV-I 415 W/m 23,2 km/h (4 Bft)
20.05.2014 18:14 27,6 C 25,6 C 44 % 1009,6 hPa 0,0 l/m 0 min 0 min 1,0 UV-I 248 W/m 12,9 km/h (3 Bft)
20.05.2014 18:16 27,4 C 25,6 C 43 % 1009,6 hPa 0,0 l/m 2 min 0 min 0,9 UV-I 258 W/m 10,3 km/h (2 Bft)
20.05.2014 18:18 27,4 C 25,6 C 44 % 1009,6 hPa 0,0 l/m 0 min 0 min 0,9 UV-I 244 W/m 15,4 km/h (3 Bft)
20.05.2014 18:20 27,3 C 25,6 C 43 % 1009,7 hPa 0,0 l/m 0 min 0 min 0,9 UV-I 204 W/m 25,7 km/h (4 Bft)
20.05.2014 18:22 27,3 C 25,6 C 42 % 1009,6 hPa 0,0 l/m 0 min 0 min 0,9 UV-I 223 W/m 28,3 km/h (4 Bft)
20.05.2014 18:24 27,2 C 25,6 C 43 % 1009,7 hPa 0,0 l/m 0 min 0 min 0,8 UV-I 227 W/m 15,4 km/h (3 Bft)
20.05.2014 18:26 27,2 C 25,6 C 44 % 1009,6 hPa 0,0 l/m 0 min 0 min 0,8 UV-I 213 W/m 10,3 km/h (2 Bft)
20.05.2014 18:28 27,2 C 25,0 C 43 % 1009,7 hPa 0,0 l/m 0 min 0 min 0,8 UV-I 211 W/m 10,3 km/h (2 Bft)
20.05.2014 18:30 27,2 C 25,0 C 42 % 1009,7 hPa 0,0 l/m 0 min 0 min 0,7 UV-I 206 W/m 15,4 km/h (3 Bft)
20.05.2014 18:32 27,1 C 25,0 C 45 % 1009,6 hPa 0,0 l/m 0 min 0 min 0,7 UV-I 193 W/m 2,6 km/h (1 Bft)
20.05.2014 18:34 27,1 C 25,0 C 44 % 1009,6 hPa 0,0 l/m 0 min 0 min 0,7 UV-I 190 W/m 12,9 km/h (3 Bft)
20.05.2014 18:36 26,9 C 25,0 C 44 % 1009,6 hPa 0,0 l/m 0 min 0 min 0,7 UV-I 181 W/m 10,3 km/h (2 Bft)
20.05.2014 18:38 26,9 C 25,0 C 45 % 1009,6 hPa 0,0 l/m 0 min 0 min 0,7 UV-I 178 W/m 15,4 km/h (3 Bft)
20.05.2014 18:40 26,9 C 25,0 C 45 % 1009,6 hPa 0,0 l/m 0 min 0 min 0,7 UV-I 181 W/m 10,3 km/h (2 Bft)
20.05.2014 18:42 26,8 C 25,0 C 45 % 1009,6 hPa 0,0 l/m 0 min 0 min 0,6 UV-I 192 W/m 10,3 km/h (2 Bft)
20.05.2014 18:44 26,8 C 24,4 C 46 % 1009,7 hPa 0,0 l/m 0 min 0 min 0,6 UV-I 185 W/m 5,1 km/h (1 Bft)
20.05.2014 18:46 26,8 C 24,4 C 46 % 1009,6 hPa 0,0 l/m 0 min 0 min 0,6 UV-I 174 W/m 2,6 km/h (1 Bft)
20.05.2014 18:48 26,7 C 24,4 C 46 % 1009,6 hPa 0,0 l/m 0 min 0 min 0,6 UV-I 174 W/m 7,7 km/h (2 Bft)
20.05.2014 18:50 26,7 C 24,4 C 46 % 1009,6 hPa 0,0 l/m 0 min 0 min 0,6 UV-I 165 W/m 0,0 km/h (0 Bft)
20.05.2014 18:52 26,7 C 24,4 C 47 % 1009,6 hPa 0,0 l/m 0 min 0 min 0,6 UV-I 163 W/m 2,6 km/h (1 Bft)
20.05.2014 18:54 26,7 C 24,4 C 47 % 1009,6 hPa 0,0 l/m 0 min 0 min 0,6 UV-I 155 W/m 10,3 km/h (2 Bft)
20.05.2014 18:56 26,7 C 24,4 C 44 % 1009,6 hPa 0,0 l/m 0 min 0 min 0,5 UV-I 149 W/m 2,6 km/h (1 Bft)
20.05.2014 18:58 26,7 C 24,4 C 46 % 1009,7 hPa 0,0 l/m 0 min 0 min 0,5 UV-I 146 W/m 12,9 km/h (3 Bft)
20.05.2014 19:00 26,6 C 24,4 C 45 % 1009,7 hPa 0,0 l/m 0 min 0 min 0,5 UV-I 141 W/m 12,9 km/h (3 Bft)
20.05.2014 19:02 26,5 C 24,4 C 44 % 1009,7 hPa 0,0 l/m 0 min 0 min 0,5 UV-I 137 W/m 12,9 km/h (3 Bft)
20.05.2014 19:06 26,4 C 23,9 C 44 % 1009,6 hPa 0,0 l/m 0 min 0 min 0,5 UV-I 130 W/m 15,4 km/h (3 Bft)
20.05.2014 19:08 26,4 C 23,9 C 44 % 1009,6 hPa 0,0 l/m 0 min 0 min 0,0 UV-I 127 W/m 15,4 km/h (3 Bft)
20.05.2014 19:10 26,3 C 23,9 C 44 % 1009,6 hPa 0,0 l/m 0 min 0 min 0,0 UV-I 123 W/m 10,3 km/h (2 Bft)
20.05.2014 19:12 26,3 C 23,9 C 44 % 1009,6 hPa 0,0 l/m 0 min 0 min 0,0 UV-I 116 W/m 10,3 km/h (2 Bft)
20.05.2014 19:14 26,2 C 23,9 C 45 % 1009,6 hPa 0,0 l/m 0 min 0 min 0,0 UV-I 113 W/m 0,0 km/h (0 Bft)
20.05.2014 19:16 26,2 C 23,9 C 45 % 1009,6 hPa 0,0 l/m 0 min 0 min 0,0 UV-I 104 W/m 7,7 km/h (2 Bft)
20.05.2014 19:18 26,1 C 23,9 C 46 % 1009,7 hPa 0,0 l/m 0 min 0 min 0,0 UV-I 88 W/m 0,0 km/h (0 Bft)
20.05.2014 19:20 26,0 C 23,9 C 45 % 1009,7 hPa 0,0 l/m 0 min 0 min 0,0 UV-I 76 W/m 0,0 km/h (0 Bft)
20.05.2014 19:22 26,0 C 23,9 C 46 % 1009,7 hPa 0,0 l/m 0 min 0 min 0,0 UV-I 67 W/m 0,0 km/h (0 Bft)
20.05.2014 19:24 25,9 C 23,3 C 46 % 1009,7 hPa 0,0 l/m 0 min 0 min 0,0 UV-I 63 W/m 0,0 km/h (0 Bft)
20.05.2014 19:26 25,8 C 23,3 C 47 % 1009,7 hPa 0,0 l/m 0 min 0 min 0,0 UV-I 65 W/m 2,6 km/h (1 Bft)
20.05.2014 19:28 25,8 C 23,3 C 47 % 1009,7 hPa 0,0 l/m 0 min 0 min 0,0 UV-I 65 W/m 0,0 km/h (0 Bft)
20.05.2014 19:30 25,7 C 23,3 C 46 % 1009,7 hPa 0,0 l/m 0 min 0 min 0,0 UV-I 63 W/m 5,1 km/h (1 Bft)
20.05.2014 19:32 25,7 C 23,3 C 46 % 1009,7 hPa 0,0 l/m 0 min 0 min 0,0 UV-I 63 W/m 2,6 km/h (1 Bft)
20.05.2014 19:34 25,7 C 23,3 C 45 % 1009,8 hPa 0,0 l/m 0 min 0 min 0,0 UV-I 62 W/m 2,6 km/h (1 Bft)
20.05.2014 19:36 25,6 C 22,8 C 47 % 1009,8 hPa 0,0 l/m 0 min 0 min 0,0 UV-I 56 W/m 0,0 km/h (0 Bft)
20.05.2014 19:38 25,6 C 22,8 C 45 % 1009,8 hPa 0,0 l/m 0 min 0 min 0,0 UV-I 51 W/m 12,9 km/h (3 Bft)
20.05.2014 19:40 25,6 C 22,8 C 45 % 1009,8 hPa 0,0 l/m 0 min 0 min 0,0 UV-I 51 W/m 2,6 km/h (1 Bft)
20.05.2014 19:42 25,6 C 22,8 C 45 % 1009,8 hPa 0,0 l/m 0 min 0 min 0,0 UV-I 54 W/m 10,3 km/h (2 Bft)
20.05.2014 19:44 25,6 C 22,8 C 46 % 1009,9 hPa 0,0 l/m 0 min 0 min 0,0 UV-I 58 W/m 0,0 km/h (0 Bft)
20.05.2014 19:46 25,6 C 22,8 C 46 % 1009,9 hPa 0,0 l/m 0 min 0 min 0,0 UV-I 56 W/m 0,0 km/h (0 Bft)
20.05.2014 19:48 25,5 C 22,8 C 46 % 1009,9 hPa 0,0 l/m 0 min 0 min 0,0 UV-I 53 W/m 0,0 km/h (0 Bft)
20.05.2014 19:50 25,5 C 22,8 C 46 % 1009,8 hPa 0,0 l/m 0 min 0 min 0,0 UV-I 49 W/m 7,7 km/h (2 Bft)
20.05.2014 19:52 25,4 C 22,8 C 47 % 1009,9 hPa 0,0 l/m 0 min 0 min 0,0 UV-I 47 W/m 5,1 km/h (1 Bft)
20.05.2014 19:54 25,4 C 22,8 C 46 % 1010,0 hPa 0,0 l/m 0 min 0 min 0,0 UV-I 46 W/m 10,3 km/h (2 Bft)
20.05.2014 19:56 25,4 C 22,8 C 46 % 1009,9 hPa 0,0 l/m 0 min 0 min 0,0 UV-I 46 W/m 0,0 km/h (0 Bft)
20.05.2014 19:58 25,3 C 22,8 C 47 % 1009,9 hPa 0,0 l/m 0 min 0 min 0,0 UV-I 47 W/m 0,0 km/h (0 Bft)
20.05.2014 20:00 25,3 C 22,2 C 47 % 1010,0 hPa 0,0 l/m 0 min 0 min 0,0 UV-I 47 W/m 0,0 km/h (0 Bft)
20.05.2014 20:02 25,2 C 22,2 C 49 % 1010,0 hPa 0,0 l/m 0 min 0 min 0,0 UV-I 47 W/m 2,6 km/h (1 Bft)
20.05.2014 20:06 25,1 C 22,2 C 49 % 1009,9 hPa 0,0 l/m 0 min 0 min 0,0 UV-I 49 W/m 7,7 km/h (2 Bft)
20.05.2014 20:08 25,1 C 22,2 C 49 % 1010,0 hPa 0,0 l/m 0 min 0 min 0,0 UV-I 51 W/m 0,0 km/h (0 Bft)
20.05.2014 20:10 24,9 C 22,2 C 49 % 1010,0 hPa 0,0 l/m 0 min 0 min 0,0 UV-I 53 W/m 0,0 km/h (0 Bft)
20.05.2014 20:12 24,9 C 22,2 C 48 % 1010,0 hPa 0,0 l/m 0 min 0 min 0,0 UV-I 51 W/m 2,6 km/h (1 Bft)
20.05.2014 20:14 24,9 C 22,2 C 49 % 1010,0 hPa 0,0 l/m 0 min 0 min 0,0 UV-I 49 W/m 2,6 km/h (1 Bft)
20.05.2014 20:16 24,9 C 21,7 C 49 % 1010,0 hPa 0,0 l/m 0 min 0 min 0,0 UV-I 49 W/m 0,0 km/h (0 Bft)
20.05.2014 20:18 24,8 C 22,2 C 49 % 1009,9 hPa 0,0 l/m 0 min 0 min 0,0 UV-I 47 W/m 0,0 km/h (0 Bft)
20.05.2014 20:20 24,8 C 21,7 C 49 % 1010,0 hPa 0,0 l/m 0 min 0 min 0,0 UV-I 47 W/m 0,0 km/h (0 Bft)
20.05.2014 20:22 24,7 C 21,7 C 50 % 1010,0 hPa 0,0 l/m 0 min 0 min 0,0 UV-I 46 W/m 0,0 km/h (0 Bft)
20.05.2014 20:24 24,7 C 21,7 C 50 % 1009,9 hPa 0,0 l/m 0 min 0 min 0,0 UV-I 42 W/m 0,0 km/h (0 Bft)
20.05.2014 20:26 24,6 C 21,7 C 50 % 1010,0 hPa 0,0 l/m 0 min 0 min 0,0 UV-I 40 W/m 0,0 km/h (0 Bft)
20.05.2014 20:28 24,6 C 21,7 C 51 % 1010,0 hPa 0,0 l/m 0 min 0 min 0,0 UV-I 37 W/m 0,0 km/h (0 Bft)
20.05.2014 20:30 24,5 C 21,1 C 51 % 1010,0 hPa 0,0 l/m 0 min 0 min 0,0 UV-I 35 W/m 0,0 km/h (0 Bft)
20.05.2014 20:32 24,5 C 21,1 C 50 % 1010,0 hPa 0,0 l/m 0 min 0 min 0,0 UV-I 33 W/m 0,0 km/h (0 Bft)
20.05.2014 20:34 24,5 C 21,1 C 51 % 1010,0 hPa 0,0 l/m 0 min 0 min 0,0 UV-I 30 W/m 0,0 km/h (0 Bft)
20.05.2014 20:36 24,4 C 21,1 C 51 % 1010,0 hPa 0,0 l/m 0 min 0 min 0,0 UV-I 28 W/m 0,0 km/h (0 Bft)
20.05.2014 20:38 24,3 C 21,1 C 52 % 1009,9 hPa 0,0 l/m 0 min 0 min 0,0 UV-I 28 W/m 0,0 km/h (0 Bft)
20.05.2014 20:40 24,3 C 21,1 C 51 % 1009,9 hPa 0,0 l/m 0 min 0 min 0,0 UV-I 26 W/m 0,0 km/h (0 Bft)
20.05.2014 20:42 24,3 C 21,1 C 52 % 1009,9 hPa 0,0 l/m 0 min 0 min 0,0 UV-I 25 W/m 0,0 km/h (0 Bft)
20.05.2014 20:44 24,2 C 20,6 C 52 % 1009,9 hPa 0,0 l/m 0 min 0 min 0,0 UV-I 25 W/m 0,0 km/h (0 Bft)
20.05.2014 20:46 24,2 C 20,6 C 52 % 1009,9 hPa 0,0 l/m 0 min 0 min 0,0 UV-I 21 W/m 0,0 km/h (0 Bft)
20.05.2014 20:48 24,2 C 20,6 C 53 % 1010,0 hPa 0,0 l/m 0 min 0 min 0,0 UV-I 21 W/m 0,0 km/h (0 Bft)
20.05.2014 20:50 24,1 C 20,6 C 53 % 1009,9 hPa 0,0 l/m 0 min 0 min 0,0 UV-I 19 W/m 0,0 km/h (0 Bft)
20.05.2014 20:52 24,0 C 20,6 C 54 % 1010,0 hPa 0,0 l/m 0 min 0 min 0,0 UV-I 16 W/m 0,0 km/h (0 Bft)
20.05.2014 20:54 23,9 C 20,6 C 55 % 1009,9 hPa 0,0 l/m 0 min 0 min 0,0 UV-I 16 W/m 0,0 km/h (0 Bft)
20.05.2014 20:56 23,8 C 20,6 C 54 % 1009,9 hPa 0,0 l/m 0 min 0 min 0,0 UV-I 14 W/m 0,0 km/h (0 Bft)
20.05.2014 20:58 23,7 C 20,0 C 54 % 1009,9 hPa 0,0 l/m 0 min 0 min 0,0 UV-I 12 W/m 0,0 km/h (0 Bft)
20.05.2014 21:00 23,7 C 20,0 C 54 % 1009,9 hPa 0,0 l/m 0 min 0 min 0,0 UV-I 12 W/m 0,0 km/h (0 Bft)
20.05.2014 21:02 23,7 C 20,0 C 55 % 1009,8 hPa 0,0 l/m 0 min 0 min 0,0 UV-I 12 W/m 0,0 km/h (0 Bft)
20.05.2014 21:06 23,6 C 20,0 C 55 % 1009,8 hPa 0,0 l/m 0 min 0 min 0,0 UV-I 9 W/m 0,0 km/h (0 Bft)
20.05.2014 21:08 23,6 C 20,0 C 56 % 1009,8 hPa 0,0 l/m 0 min 0 min 0,0 UV-I 7 W/m 0,0 km/h (0 Bft)
20.05.2014 21:10 23,5 C 20,0 C 57 % 1009,8 hPa 0,0 l/m 0 min 0 min 0,0 UV-I 7 W/m 0,0 km/h (0 Bft)
20.05.2014 21:12 23,4 C 19,4 C 56 % 1009,8 hPa 0,0 l/m 0 min 0 min 0,0 UV-I 5 W/m 0,0 km/h (0 Bft)
20.05.2014 21:14 23,3 C 19,4 C 57 % 1009,8 hPa 0,0 l/m 0 min 0 min 0,0 UV-I 5 W/m 0,0 km/h (0 Bft)
20.05.2014 21:16 23,3 C 19,4 C 58 % 1009,8 hPa 0,0 l/m 0 min 0 min 0,0 UV-I 5 W/m 0,0 km/h (0 Bft)
20.05.2014 21:18 23,2 C 19,4 C 58 % 1009,8 hPa 0,0 l/m 0 min 0 min 0,0 UV-I 0 W/m 0,0 km/h (0 Bft)
20.05.2014 21:20 23,1 C 19,4 C 60 % 1009,8 hPa 0,0 l/m 0 min 0 min 0,0 UV-I 0 W/m 0,0 km/h (0 Bft)
20.05.2014 21:22 23,1 C 19,4 C 60 % 1009,8 hPa 0,0 l/m 0 min 0 min 0,0 UV-I 0 W/m 0,0 km/h (0 Bft)
20.05.2014 21:24 23,0 C 19,4 C 60 % 1009,8 hPa 0,0 l/m 0 min 0 min 0,0 UV-I 0 W/m 0,0 km/h (0 Bft)
20.05.2014 21:26 22,9 C 19,4 C 61 % 1009,9 hPa 0,0 l/m 0 min 0 min 0,0 UV-I 0 W/m 0,0 km/h (0 Bft)
20.05.2014 21:28 22,9 C 19,4 C 61 % 1009,8 hPa 0,0 l/m 0 min 0 min 0,0 UV-I 0 W/m 0,0 km/h (0 Bft)
20.05.2014 21:30 22,8 C 19,4 C 61 % 1009,8 hPa 0,0 l/m 0 min 0 min 0,0 UV-I 0 W/m 0,0 km/h (0 Bft)
20.05.2014 21:32 22,7 C 19,4 C 62 % 1009,8 hPa 0,0 l/m 0 min 0 min 0,0 UV-I 0 W/m 0,0 km/h (0 Bft)
20.05.2014 21:34 22,7 C 19,4 C 62 % 1009,9 hPa 0,0 l/m 0 min 0 min 0,0 UV-I 0 W/m 0,0 km/h (0 Bft)
20.05.2014 21:36 22,6 C 19,4 C 62 % 1009,9 hPa 0,0 l/m 0 min 0 min 0,0 UV-I 0 W/m 0,0 km/h (0 Bft)
20.05.2014 21:38 22,6 C 19,4 C 62 % 1009,9 hPa 0,0 l/m 0 min 0 min 0,0 UV-I 0 W/m 0,0 km/h (0 Bft)
20.05.2014 21:40 22,5 C 19,4 C 63 % 1009,9 hPa 0,0 l/m 0 min 0 min 0,0 UV-I 0 W/m 0,0 km/h (0 Bft)
20.05.2014 21:42 22,4 C 18,9 C 63 % 1009,9 hPa 0,0 l/m 0 min 0 min 0,0 UV-I 0 W/m 0,0 km/h (0 Bft)
20.05.2014 21:44 22,4 C 18,9 C 63 % 1009,9 hPa 0,0 l/m 0 min 0 min 0,0 UV-I 0 W/m 0,0 km/h (0 Bft)
20.05.2014 21:46 22,3 C 18,9 C 65 % 1009,9 hPa 0,0 l/m 0 min 0 min 0,0 UV-I 0 W/m 0,0 km/h (0 Bft)
20.05.2014 21:48 22,2 C 18,9 C 65 % 1009,9 hPa 0,0 l/m 0 min 0 min 0,0 UV-I 0 W/m 0,0 km/h (0 Bft)
20.05.2014 21:50 22,1 C 18,9 C 65 % 1009,9 hPa 0,0 l/m 0 min 0 min 0,0 UV-I 0 W/m 0,0 km/h (0 Bft)
20.05.2014 21:52 22,1 C 18,9 C 65 % 1010,0 hPa 0,0 l/m 0 min 0 min 0,0 UV-I 0 W/m 0,0 km/h (0 Bft)
20.05.2014 21:54 22,1 C 18,9 C 65 % 1010,0 hPa 0,0 l/m 0 min 0 min 0,0 UV-I 0 W/m 0,0 km/h (0 Bft)
20.05.2014 21:56 22,0 C 18,9 C 65 % 1010,1 hPa 0,0 l/m 0 min 0 min 0,0 UV-I 0 W/m 0,0 km/h (0 Bft)
20.05.2014 21:58 22,0 C 18,9 C 65 % 1010,1 hPa 0,0 l/m 0 min 0 min 0,0 UV-I 0 W/m 0,0 km/h (0 Bft)
20.05.2014 22:00 21,9 C 18,9 C 66 % 1010,1 hPa 0,0 l/m 0 min 0 min 0,0 UV-I 0 W/m 0,0 km/h (0 Bft)
20.05.2014 22:02 21,9 C 18,9 C 66 % 1010,1 hPa 0,0 l/m 0 min 0 min 0,0 UV-I 0 W/m 0,0 km/h (0 Bft)
20.05.2014 22:06 21,8 C 18,9 C 66 % 1010,1 hPa 0,0 l/m 0 min 0 min 0,0 UV-I 0 W/m 0,0 km/h (0 Bft)
20.05.2014 22:08 21,7 C 18,9 C 67 % 1010,1 hPa 0,0 l/m 0 min 0 min 0,0 UV-I 0 W/m 0,0 km/h (0 Bft)
20.05.2014 22:10 21,6 C 18,9 C 68 % 1010,1 hPa 0,0 l/m 0 min 0 min 0,0 UV-I 0 W/m 0,0 km/h (0 Bft)
20.05.2014 22:12 21,6 C 18,3 C 68 % 1010,1 hPa 0,0 l/m 0 min 0 min 0,0 UV-I 0 W/m 0,0 km/h (0 Bft)
20.05.2014 22:14 21,5 C 18,3 C 69 % 1010,1 hPa 0,0 l/m 0 min 0 min 0,0 UV-I 0 W/m 0,0 km/h (0 Bft)
20.05.2014 22:16 21,4 C 18,3 C 69 % 1010,2 hPa 0,0 l/m 0 min 0 min 0,0 UV-I 0 W/m 0,0 km/h (0 Bft)
20.05.2014 22:18 21,4 C 18,3 C 69 % 1010,2 hPa 0,0 l/m 0 min 0 min 0,0 UV-I 0 W/m 0,0 km/h (0 Bft)
20.05.2014 22:20 21,4 C 18,3 C 68 % 1010,2 hPa 0,0 l/m 0 min 0 min 0,0 UV-I 0 W/m 0,0 km/h (0 Bft)
20.05.2014 22:22 21,4 C 18,3 C 67 % 1010,2 hPa 0,0 l/m 0 min 0 min 0,0 UV-I 0 W/m 0,0 km/h (0 Bft)
20.05.2014 22:24 21,4 C 18,3 C 67 % 1010,2 hPa 0,0 l/m 0 min 0 min 0,0 UV-I 0 W/m 0,0 km/h (0 Bft)
20.05.2014 22:26 21,4 C 18,3 C 67 % 1010,2 hPa 0,0 l/m 0 min 0 min 0,0 UV-I 0 W/m 0,0 km/h (0 Bft)
20.05.2014 22:28 21,4 C 18,3 C 67 % 1010,2 hPa 0,0 l/m 0 min 0 min 0,0 UV-I 0 W/m 0,0 km/h (0 Bft)
20.05.2014 22:30 21,4 C 18,3 C 67 % 1010,2 hPa 0,0 l/m 0 min 0 min 0,0 UV-I 0 W/m 0,0 km/h (0 Bft)
20.05.2014 22:32 21,4 C 18,3 C 67 % 1010,2 hPa 0,0 l/m 0 min 0 min 0,0 UV-I 0 W/m 0,0 km/h (0 Bft)
20.05.2014 22:34 21,4 C 18,3 C 66 % 1010,2 hPa 0,0 l/m 0 min 0 min 0,0 UV-I 0 W/m 0,0 km/h (0 Bft)
20.05.2014 22:36 21,4 C 18,3 C 66 % 1010,2 hPa 0,0 l/m 0 min 0 min 0,0 UV-I 0 W/m 0,0 km/h (0 Bft)
20.05.2014 22:38 21,4 C 18,3 C 66 % 1010,2 hPa 0,0 l/m 0 min 0 min 0,0 UV-I 0 W/m 0,0 km/h (0 Bft)
20.05.2014 22:40 21,4 C 18,3 C 66 % 1010,2 hPa 0,0 l/m 0 min 0 min 0,0 UV-I 0 W/m 0,0 km/h (0 Bft)
20.05.2014 22:42 21,4 C 18,3 C 66 % 1010,2 hPa 0,0 l/m 0 min 0 min 0,0 UV-I 0 W/m 0,0 km/h (0 Bft)
20.05.2014 22:44 21,4 C 18,3 C 66 % 1010,2 hPa 0,0 l/m 0 min 0 min 0,0 UV-I 0 W/m 0,0 km/h (0 Bft)
20.05.2014 22:46 21,3 C 18,3 C 66 % 1010,3 hPa 0,0 l/m 0 min 0 min 0,0 UV-I 0 W/m 0,0 km/h (0 Bft)
20.05.2014 22:48 21,3 C 18,3 C 66 % 1010,3 hPa 0,0 l/m 0 min 0 min 0,0 UV-I 0 W/m 0,0 km/h (0 Bft)
20.05.2014 22:50 21,3 C 18,3 C 66 % 1010,3 hPa 0,0 l/m 0 min 0 min 0,0 UV-I 0 W/m 0,0 km/h (0 Bft)
20.05.2014 22:52 21,3 C 18,3 C 67 % 1010,2 hPa 0,0 l/m 0 min 0 min 0,0 UV-I 0 W/m 0,0 km/h (0 Bft)
20.05.2014 22:54 21,2 C 18,3 C 67 % 1010,2 hPa 0,0 l/m 0 min 0 min 0,0 UV-I 0 W/m 0,0 km/h (0 Bft)
20.05.2014 22:56 21,2 C 18,3 C 67 % 1010,2 hPa 0,0 l/m 0 min 0 min 0,0 UV-I 0 W/m 0,0 km/h (0 Bft)
20.05.2014 22:58 21,1 C 18,3 C 67 % 1010,3 hPa 0,0 l/m 0 min 0 min 0,0 UV-I 0 W/m 0,0 km/h (0 Bft)
20.05.2014 23:00 21,1 C 18,3 C 67 % 1010,3 hPa 0,0 l/m 0 min 0 min 0,0 UV-I 0 W/m 0,0 km/h (0 Bft)
20.05.2014 23:02 21,1 C 18,3 C 67 % 1010,3 hPa 0,0 l/m 0 min 0 min 0,0 UV-I 0 W/m 0,0 km/h (0 Bft)
20.05.2014 23:06 21,0 C 17,8 C 67 % 1010,3 hPa 0,0 l/m 0 min 0 min 0,0 UV-I 0 W/m 0,0 km/h (0 Bft)
20.05.2014 23:08 21,0 C 17,8 C 67 % 1010,3 hPa 0,0 l/m 0 min 0 min 0,0 UV-I 0 W/m 0,0 km/h (0 Bft)
20.05.2014 23:10 20,9 C 17,8 C 67 % 1010,3 hPa 0,0 l/m 0 min 0 min 0,0 UV-I 0 W/m 0,0 km/h (0 Bft)
20.05.2014 23:12 20,9 C 17,8 C 67 % 1010,3 hPa 0,0 l/m 0 min 0 min 0,0 UV-I 0 W/m 0,0 km/h (0 Bft)
20.05.2014 23:14 20,9 C 17,8 C 67 % 1010,3 hPa 0,0 l/m 0 min 0 min 0,0 UV-I 0 W/m 0,0 km/h (0 Bft)
20.05.2014 23:16 20,9 C 17,8 C 68 % 1010,3 hPa 0,0 l/m 0 min 0 min 0,0 UV-I 0 W/m 0,0 km/h (0 Bft)
20.05.2014 23:18 20,8 C 17,8 C 68 % 1010,3 hPa 0,0 l/m 0 min 0 min 0,0 UV-I 0 W/m 0,0 km/h (0 Bft)
20.05.2014 23:20 20,8 C 17,8 C 68 % 1010,4 hPa 0,0 l/m 0 min 0 min 0,0 UV-I 0 W/m 0,0 km/h (0 Bft)
20.05.2014 23:22 20,7 C 17,8 C 68 % 1010,4 hPa 0,0 l/m 0 min 0 min 0,0 UV-I 0 W/m 0,0 km/h (0 Bft)
20.05.2014 23:24 20,7 C 17,8 C 69 % 1010,4 hPa 0,0 l/m 0 min 0 min 0,0 UV-I 0 W/m 0,0 km/h (0 Bft)
20.05.2014 23:26 20,6 C 17,8 C 68 % 1010,3 hPa 0,0 l/m 0 min 0 min 0,0 UV-I 0 W/m 0,0 km/h (0 Bft)
20.05.2014 23:28 20,6 C 17,8 C 68 % 1010,3 hPa 0,0 l/m 0 min 0 min 0,0 UV-I 0 W/m 0,0 km/h (0 Bft)
20.05.2014 23:30 20,5 C 17,2 C 68 % 1010,3 hPa 0,0 l/m 0 min 0 min 0,0 UV-I 0 W/m 0,0 km/h (0 Bft)
20.05.2014 23:32 20,4 C 17,2 C 68 % 1010,3 hPa 0,0 l/m 0 min 0 min 0,0 UV-I 0 W/m 0,0 km/h (0 Bft)
20.05.2014 23:34 20,3 C 17,2 C 69 % 1010,3 hPa 0,0 l/m 0 min 0 min 0,0 UV-I 0 W/m 0,0 km/h (0 Bft)
20.05.2014 23:36 20,3 C 17,2 C 69 % 1010,3 hPa 0,0 l/m 0 min 0 min 0,0 UV-I 0 W/m 0,0 km/h (0 Bft)
20.05.2014 23:38 20,3 C 17,2 C 69 % 1010,3 hPa 0,0 l/m 0 min 0 min 0,0 UV-I 0 W/m 0,0 km/h (0 Bft)
20.05.2014 23:40 20,3 C 17,2 C 70 % 1010,3 hPa 0,0 l/m 0 min 0 min 0,0 UV-I 0 W/m 0,0 km/h (0 Bft)
20.05.2014 23:42 20,3 C 17,2 C 70 % 1010,3 hPa 0,0 l/m 0 min 0 min 0,0 UV-I 0 W/m 0,0 km/h (0 Bft)
20.05.2014 23:44 20,3 C 17,2 C 70 % 1010,3 hPa 0,0 l/m 0 min 0 min 0,0 UV-I 0 W/m 0,0 km/h (0 Bft)
20.05.2014 23:46 20,2 C 17,2 C 70 % 1010,3 hPa 0,0 l/m 0 min 0 min 0,0 UV-I 0 W/m 0,0 km/h (0 Bft)
20.05.2014 23:48 20,2 C 17,2 C 70 % 1010,3 hPa 0,0 l/m 0 min 0 min 0,0 UV-I 0 W/m 0,0 km/h (0 Bft)
20.05.2014 23:50 20,2 C 17,2 C 70 % 1010,4 hPa 0,0 l/m 0 min 0 min 0,0 UV-I 0 W/m 0,0 km/h (0 Bft)
20.05.2014 23:52 20,1 C 17,2 C 71 % 1010,3 hPa 0,0 l/m 0 min 0 min 0,0 UV-I 0 W/m 0,0 km/h (0 Bft)
20.05.2014 23:54 20,1 C 17,2 C 71 % 1010,3 hPa 0,0 l/m 0 min 0 min 0,0 UV-I 0 W/m 0,0 km/h (0 Bft)
20.05.2014 23:56 19,9 C 17,2 C 71 % 1010,3 hPa 0,0 l/m 0 min 0 min 0,0 UV-I 0 W/m 0,0 km/h (0 Bft)
20.05.2014 23:58 19,9 C 16,7 C 71 % 1010,3 hPa 0,0 l/m 0 min 0 min 0,0 UV-I 0 W/m 0,0 km/h (0 Bft)
_ Min-Zeit 04:56 02:42 18:02 00:00 - - - - - 00:00
Minimum _ 14,2 C 12,2 C 42 % 1007,2 hPa - - - - - 0,0 km/h (0 Bft)
_ Max-Zeit 15:48 15:48 05:32 11:10 00:00 08:10 00:00 14:20 12:20 15:08
Maximum _ 28,5 C 32,8 C 85 % 1011,3 hPa 0,0 l/m 2 min 0 min 4,5 UV-I 937 W/m 30,9 km/h
S-SO (5 Bft)
Durchschnitt _ 21,2 C 19,8 C 66 % 1009,8 hPa #0,0 l/m #6:10 h #0 min. 2,3 UV-I 353 W/m 6,5 km/h (2 Bft)
© 2014 W. Hausmann